<?xml version="1.0" encoding="UTF-8" standalone="no" ?>
<gpx xmlns="http://www.topografix.com/GPX/1/1" xmlns:xsi="http://www.w3.org/2001/XMLSchema-instance" xsi:schemaLocation="http://www.topografix.com/GPX/1/1 http://www.topografix.com/GPX/1/1/gpx.xsd" version="1.1" creator="VisuGPX - https://www.visugpx.com">
  <metadata>
    <name>Tour des cinq lacs en trois jours - rando bivouac</name>
    <desc><![CDATA[Variation en 2.5 jours et cherchant des sentiers plus difficile du tour des 5 lacs.
Dernier jour
Attention circuit difficile
ATTENTION : Au km 14 NE PAS SUIVRE le GPX. Préférer le trajet parralele du club vosgien vers le col de Thiaville. J'ai emprunté un ancien tracé sur IGN qui n'existe plus du tout et qui est tout à fait impraticable. 
[url]https://journal.arthion.fr/2023/07/16/rando-aventure-dans-les-vosges-le-tour-des-cinq-lacs-en-bivouac-de-3-jours[/url]]]></desc>
  </metadata>
  <trk>
    <name><![CDATA[Randonnée du 15/07/2023 à 08:02]]></name>
    <trkseg>
      <trkpt lat="48.01661" lon="6.97868">
        <ele>986</ele>
        <time>2023-07-15T08:02:56+02:00</time>
      </trkpt>
      <trkpt lat="48.0165" lon="6.97852">
        <ele>988</ele>
        <time>2023-07-15T08:02:58+02:00</time>
      </trkpt>
      <trkpt lat="48.01641" lon="6.97886">
        <ele>986</ele>
        <time>2023-07-15T08:04:08+02:00</time>
      </trkpt>
      <trkpt lat="48.01641" lon="6.9792">
        <ele>989</ele>
        <time>2023-07-15T08:04:32+02:00</time>
      </trkpt>
      <trkpt lat="48.01645" lon="6.97953">
        <ele>992</ele>
        <time>2023-07-15T08:04:58+02:00</time>
      </trkpt>
      <trkpt lat="48.01625" lon="6.97971">
        <ele>993</ele>
        <time>2023-07-15T08:05:22+02:00</time>
      </trkpt>
      <trkpt lat="48.0162" lon="6.98005">
        <ele>995</ele>
        <time>2023-07-15T08:06:14+02:00</time>
      </trkpt>
      <trkpt lat="48.016" lon="6.98023">
        <ele>993</ele>
        <time>2023-07-15T08:06:35+02:00</time>
      </trkpt>
      <trkpt lat="48.01579" lon="6.9801">
        <ele>1001</ele>
        <time>2023-07-15T08:06:57+02:00</time>
      </trkpt>
      <trkpt lat="48.01563" lon="6.98034">
        <ele>1002</ele>
        <time>2023-07-15T08:07:22+02:00</time>
      </trkpt>
      <trkpt lat="48.01558" lon="6.98001">
        <ele>999</ele>
        <time>2023-07-15T08:12:56+02:00</time>
      </trkpt>
      <trkpt lat="48.01536" lon="6.97989">
        <ele>1004</ele>
        <time>2023-07-15T08:13:21+02:00</time>
      </trkpt>
      <trkpt lat="48.01514" lon="6.97977">
        <ele>1004</ele>
        <time>2023-07-15T08:14:05+02:00</time>
      </trkpt>
      <trkpt lat="48.01491" lon="6.97978">
        <ele>1012</ele>
        <time>2023-07-15T08:14:38+02:00</time>
      </trkpt>
      <trkpt lat="48.01469" lon="6.97988">
        <ele>1019</ele>
        <time>2023-07-15T08:15:10+02:00</time>
      </trkpt>
      <trkpt lat="48.0145" lon="6.97968">
        <ele>1034</ele>
        <time>2023-07-15T08:15:43+02:00</time>
      </trkpt>
      <trkpt lat="48.01437" lon="6.9794">
        <ele>1029</ele>
        <time>2023-07-15T08:16:04+02:00</time>
      </trkpt>
      <trkpt lat="48.01416" lon="6.9793">
        <ele>1038</ele>
        <time>2023-07-15T08:16:43+02:00</time>
      </trkpt>
      <trkpt lat="48.01399" lon="6.97906">
        <ele>1049</ele>
        <time>2023-07-15T08:17:16+02:00</time>
      </trkpt>
      <trkpt lat="48.01383" lon="6.97882">
        <ele>1048</ele>
        <time>2023-07-15T08:18:06+02:00</time>
      </trkpt>
      <trkpt lat="48.01364" lon="6.97864">
        <ele>1050</ele>
        <time>2023-07-15T08:18:37+02:00</time>
      </trkpt>
      <trkpt lat="48.01363" lon="6.97829">
        <ele>1047</ele>
        <time>2023-07-15T08:19:06+02:00</time>
      </trkpt>
      <trkpt lat="48.01352" lon="6.978">
        <ele>1052</ele>
        <time>2023-07-15T08:19:35+02:00</time>
      </trkpt>
      <trkpt lat="48.01335" lon="6.97777">
        <ele>1056</ele>
        <time>2023-07-15T08:20:01+02:00</time>
      </trkpt>
      <trkpt lat="48.01326" lon="6.97744">
        <ele>1052</ele>
        <time>2023-07-15T08:20:26+02:00</time>
      </trkpt>
      <trkpt lat="48.01306" lon="6.97726">
        <ele>1059</ele>
        <time>2023-07-15T08:20:53+02:00</time>
      </trkpt>
      <trkpt lat="48.01287" lon="6.97709">
        <ele>1061</ele>
        <time>2023-07-15T08:21:27+02:00</time>
      </trkpt>
      <trkpt lat="48.0127" lon="6.97686">
        <ele>1062</ele>
        <time>2023-07-15T08:21:57+02:00</time>
      </trkpt>
      <trkpt lat="48.01261" lon="6.97717">
        <ele>1072</ele>
        <time>2023-07-15T08:22:45+02:00</time>
      </trkpt>
      <trkpt lat="48.01259" lon="6.97751">
        <ele>1074</ele>
        <time>2023-07-15T08:23:07+02:00</time>
      </trkpt>
      <trkpt lat="48.01254" lon="6.97785">
        <ele>1081</ele>
        <time>2023-07-15T08:23:26+02:00</time>
      </trkpt>
      <trkpt lat="48.01261" lon="6.97817">
        <ele>1085</ele>
        <time>2023-07-15T08:23:52+02:00</time>
      </trkpt>
      <trkpt lat="48.01272" lon="6.97847">
        <ele>1083</ele>
        <time>2023-07-15T08:24:18+02:00</time>
      </trkpt>
      <trkpt lat="48.01284" lon="6.97877">
        <ele>1078</ele>
        <time>2023-07-15T08:24:50+02:00</time>
      </trkpt>
      <trkpt lat="48.01294" lon="6.97908">
        <ele>1084</ele>
        <time>2023-07-15T08:25:18+02:00</time>
      </trkpt>
      <trkpt lat="48.01303" lon="6.9794">
        <ele>1091</ele>
        <time>2023-07-15T08:25:47+02:00</time>
      </trkpt>
      <trkpt lat="48.01313" lon="6.97973">
        <ele>1093</ele>
        <time>2023-07-15T08:26:16+02:00</time>
      </trkpt>
      <trkpt lat="48.01326" lon="6.98001">
        <ele>1099</ele>
        <time>2023-07-15T08:26:42+02:00</time>
      </trkpt>
      <trkpt lat="48.01337" lon="6.9803">
        <ele>1099</ele>
        <time>2023-07-15T08:27:06+02:00</time>
      </trkpt>
      <trkpt lat="48.01354" lon="6.98057">
        <ele>1096</ele>
        <time>2023-07-15T08:27:34+02:00</time>
      </trkpt>
      <trkpt lat="48.0137" lon="6.9808">
        <ele>1099</ele>
        <time>2023-07-15T08:27:55+02:00</time>
      </trkpt>
      <trkpt lat="48.01383" lon="6.98108">
        <ele>1103</ele>
        <time>2023-07-15T08:28:20+02:00</time>
      </trkpt>
      <trkpt lat="48.01399" lon="6.98132">
        <ele>1101</ele>
        <time>2023-07-15T08:28:49+02:00</time>
      </trkpt>
      <trkpt lat="48.01418" lon="6.98153">
        <ele>1101</ele>
        <time>2023-07-15T08:29:14+02:00</time>
      </trkpt>
      <trkpt lat="48.01438" lon="6.98173">
        <ele>1109</ele>
        <time>2023-07-15T08:29:39+02:00</time>
      </trkpt>
      <trkpt lat="48.01457" lon="6.98192">
        <ele>1101</ele>
        <time>2023-07-15T08:30:04+02:00</time>
      </trkpt>
      <trkpt lat="48.01477" lon="6.98208">
        <ele>1102</ele>
        <time>2023-07-15T08:30:29+02:00</time>
      </trkpt>
      <trkpt lat="48.01496" lon="6.98228">
        <ele>1104</ele>
        <time>2023-07-15T08:30:58+02:00</time>
      </trkpt>
      <trkpt lat="48.01479" lon="6.98252">
        <ele>1119</ele>
        <time>2023-07-15T08:31:54+02:00</time>
      </trkpt>
      <trkpt lat="48.01455" lon="6.98248">
        <ele>1122</ele>
        <time>2023-07-15T08:32:44+02:00</time>
      </trkpt>
      <trkpt lat="48.01474" lon="6.98271">
        <ele>1139</ele>
        <time>2023-07-15T08:33:34+02:00</time>
      </trkpt>
      <trkpt lat="48.01452" lon="6.98274">
        <ele>1141</ele>
        <time>2023-07-15T08:34:00+02:00</time>
      </trkpt>
      <trkpt lat="48.01459" lon="6.98307">
        <ele>1147</ele>
        <time>2023-07-15T08:35:31+02:00</time>
      </trkpt>
      <trkpt lat="48.01472" lon="6.98336">
        <ele>1154</ele>
        <time>2023-07-15T08:36:11+02:00</time>
      </trkpt>
      <trkpt lat="48.01489" lon="6.98357">
        <ele>1157</ele>
        <time>2023-07-15T08:36:43+02:00</time>
      </trkpt>
      <trkpt lat="48.01507" lon="6.98379">
        <ele>1163</ele>
        <time>2023-07-15T08:37:12+02:00</time>
      </trkpt>
      <trkpt lat="48.01516" lon="6.98411">
        <ele>1158</ele>
        <time>2023-07-15T08:37:50+02:00</time>
      </trkpt>
      <trkpt lat="48.01529" lon="6.98439">
        <ele>1162</ele>
        <time>2023-07-15T08:38:27+02:00</time>
      </trkpt>
      <trkpt lat="48.01549" lon="6.98454">
        <ele>1167</ele>
        <time>2023-07-15T08:39:17+02:00</time>
      </trkpt>
      <trkpt lat="48.01573" lon="6.9846">
        <ele>1165</ele>
        <time>2023-07-15T08:39:38+02:00</time>
      </trkpt>
      <trkpt lat="48.01596" lon="6.98466">
        <ele>1162</ele>
        <time>2023-07-15T08:40:02+02:00</time>
      </trkpt>
      <trkpt lat="48.01618" lon="6.98471">
        <ele>1162</ele>
        <time>2023-07-15T08:40:25+02:00</time>
      </trkpt>
      <trkpt lat="48.01641" lon="6.98478">
        <ele>1165</ele>
        <time>2023-07-15T08:40:47+02:00</time>
      </trkpt>
      <trkpt lat="48.01663" lon="6.98485">
        <ele>1166</ele>
        <time>2023-07-15T08:41:15+02:00</time>
      </trkpt>
      <trkpt lat="48.01686" lon="6.98487">
        <ele>1167</ele>
        <time>2023-07-15T08:41:45+02:00</time>
      </trkpt>
      <trkpt lat="48.01708" lon="6.98494">
        <ele>1168</ele>
        <time>2023-07-15T08:42:11+02:00</time>
      </trkpt>
      <trkpt lat="48.0173" lon="6.98502">
        <ele>1170</ele>
        <time>2023-07-15T08:42:39+02:00</time>
      </trkpt>
      <trkpt lat="48.01752" lon="6.98491">
        <ele>1171</ele>
        <time>2023-07-15T08:43:05+02:00</time>
      </trkpt>
      <trkpt lat="48.01774" lon="6.985">
        <ele>1168</ele>
        <time>2023-07-15T08:43:29+02:00</time>
      </trkpt>
      <trkpt lat="48.01796" lon="6.98508">
        <ele>1175</ele>
        <time>2023-07-15T08:43:53+02:00</time>
      </trkpt>
      <trkpt lat="48.01819" lon="6.98512">
        <ele>1172</ele>
        <time>2023-07-15T08:44:22+02:00</time>
      </trkpt>
      <trkpt lat="48.01842" lon="6.98518">
        <ele>1172</ele>
        <time>2023-07-15T08:44:47+02:00</time>
      </trkpt>
      <trkpt lat="48.01865" lon="6.9852">
        <ele>1172</ele>
        <time>2023-07-15T08:45:10+02:00</time>
      </trkpt>
      <trkpt lat="48.0185" lon="6.98545">
        <ele>1177</ele>
        <time>2023-07-15T08:46:44+02:00</time>
      </trkpt>
      <trkpt lat="48.01827" lon="6.98539">
        <ele>1179</ele>
        <time>2023-07-15T08:47:08+02:00</time>
      </trkpt>
      <trkpt lat="48.01804" lon="6.9854">
        <ele>1181</ele>
        <time>2023-07-15T08:47:36+02:00</time>
      </trkpt>
      <trkpt lat="48.01781" lon="6.98542">
        <ele>1181</ele>
        <time>2023-07-15T08:48:05+02:00</time>
      </trkpt>
      <trkpt lat="48.01758" lon="6.98547">
        <ele>1186</ele>
        <time>2023-07-15T08:48:29+02:00</time>
      </trkpt>
      <trkpt lat="48.01735" lon="6.9855">
        <ele>1190</ele>
        <time>2023-07-15T08:48:55+02:00</time>
      </trkpt>
      <trkpt lat="48.01712" lon="6.98554">
        <ele>1190</ele>
        <time>2023-07-15T08:49:20+02:00</time>
      </trkpt>
      <trkpt lat="48.0169" lon="6.98558">
        <ele>1190</ele>
        <time>2023-07-15T08:49:47+02:00</time>
      </trkpt>
      <trkpt lat="48.01667" lon="6.98565">
        <ele>1189</ele>
        <time>2023-07-15T08:50:14+02:00</time>
      </trkpt>
      <trkpt lat="48.01646" lon="6.98577">
        <ele>1189</ele>
        <time>2023-07-15T08:51:38+02:00</time>
      </trkpt>
      <trkpt lat="48.01623" lon="6.98573">
        <ele>1188</ele>
        <time>2023-07-15T08:51:58+02:00</time>
      </trkpt>
      <trkpt lat="48.01601" lon="6.98564">
        <ele>1187</ele>
        <time>2023-07-15T08:52:18+02:00</time>
      </trkpt>
      <trkpt lat="48.01579" lon="6.98553">
        <ele>1186</ele>
        <time>2023-07-15T08:52:37+02:00</time>
      </trkpt>
      <trkpt lat="48.01557" lon="6.98543">
        <ele>1186</ele>
        <time>2023-07-15T08:52:57+02:00</time>
      </trkpt>
      <trkpt lat="48.01535" lon="6.98534">
        <ele>1186</ele>
        <time>2023-07-15T08:53:17+02:00</time>
      </trkpt>
      <trkpt lat="48.01513" lon="6.98525">
        <ele>1188</ele>
        <time>2023-07-15T08:53:36+02:00</time>
      </trkpt>
      <trkpt lat="48.01491" lon="6.98513">
        <ele>1188</ele>
        <time>2023-07-15T08:53:55+02:00</time>
      </trkpt>
      <trkpt lat="48.01471" lon="6.98497">
        <ele>1188</ele>
        <time>2023-07-15T08:54:15+02:00</time>
      </trkpt>
      <trkpt lat="48.01483" lon="6.98527">
        <ele>1190</ele>
        <time>2023-07-15T08:54:44+02:00</time>
      </trkpt>
      <trkpt lat="48.01497" lon="6.98553">
        <ele>1191</ele>
        <time>2023-07-15T08:55:06+02:00</time>
      </trkpt>
      <trkpt lat="48.0152" lon="6.98558">
        <ele>1192</ele>
        <time>2023-07-15T08:57:33+02:00</time>
      </trkpt>
      <trkpt lat="48.01541" lon="6.98571">
        <ele>1191</ele>
        <time>2023-07-15T08:57:53+02:00</time>
      </trkpt>
      <trkpt lat="48.01563" lon="6.98583">
        <ele>1194</ele>
        <time>2023-07-15T08:58:16+02:00</time>
      </trkpt>
      <trkpt lat="48.01583" lon="6.986">
        <ele>1199</ele>
        <time>2023-07-15T08:58:41+02:00</time>
      </trkpt>
      <trkpt lat="48.01599" lon="6.98624">
        <ele>1202</ele>
        <time>2023-07-15T08:59:09+02:00</time>
      </trkpt>
      <trkpt lat="48.01613" lon="6.98651">
        <ele>1205</ele>
        <time>2023-07-15T08:59:35+02:00</time>
      </trkpt>
      <trkpt lat="48.01625" lon="6.98679">
        <ele>1206</ele>
        <time>2023-07-15T09:00:03+02:00</time>
      </trkpt>
      <trkpt lat="48.01642" lon="6.98703">
        <ele>1208</ele>
        <time>2023-07-15T09:00:26+02:00</time>
      </trkpt>
      <trkpt lat="48.01657" lon="6.98729">
        <ele>1209</ele>
        <time>2023-07-15T09:00:50+02:00</time>
      </trkpt>
      <trkpt lat="48.01671" lon="6.98755">
        <ele>1212</ele>
        <time>2023-07-15T09:01:15+02:00</time>
      </trkpt>
      <trkpt lat="48.01689" lon="6.98778">
        <ele>1212</ele>
        <time>2023-07-15T09:01:43+02:00</time>
      </trkpt>
      <trkpt lat="48.01706" lon="6.98801">
        <ele>1215</ele>
        <time>2023-07-15T09:02:08+02:00</time>
      </trkpt>
      <trkpt lat="48.01723" lon="6.98825">
        <ele>1218</ele>
        <time>2023-07-15T09:02:30+02:00</time>
      </trkpt>
      <trkpt lat="48.01741" lon="6.98845">
        <ele>1221</ele>
        <time>2023-07-15T09:02:59+02:00</time>
      </trkpt>
      <trkpt lat="48.0176" lon="6.98863">
        <ele>1226</ele>
        <time>2023-07-15T09:03:30+02:00</time>
      </trkpt>
      <trkpt lat="48.0178" lon="6.98882">
        <ele>1230</ele>
        <time>2023-07-15T09:04:04+02:00</time>
      </trkpt>
      <trkpt lat="48.01799" lon="6.98901">
        <ele>1235</ele>
        <time>2023-07-15T09:04:43+02:00</time>
      </trkpt>
      <trkpt lat="48.01818" lon="6.9892">
        <ele>1237</ele>
        <time>2023-07-15T09:05:15+02:00</time>
      </trkpt>
      <trkpt lat="48.01838" lon="6.98937">
        <ele>1241</ele>
        <time>2023-07-15T09:05:45+02:00</time>
      </trkpt>
      <trkpt lat="48.01854" lon="6.98961">
        <ele>1245</ele>
        <time>2023-07-15T09:06:28+02:00</time>
      </trkpt>
      <trkpt lat="48.01875" lon="6.98973">
        <ele>1251</ele>
        <time>2023-07-15T09:06:57+02:00</time>
      </trkpt>
      <trkpt lat="48.01898" lon="6.9898">
        <ele>1252</ele>
        <time>2023-07-15T09:07:27+02:00</time>
      </trkpt>
      <trkpt lat="48.01918" lon="6.98994">
        <ele>1256</ele>
        <time>2023-07-15T09:07:53+02:00</time>
      </trkpt>
      <trkpt lat="48.01936" lon="6.99015">
        <ele>1261</ele>
        <time>2023-07-15T09:08:36+02:00</time>
      </trkpt>
      <trkpt lat="48.01952" lon="6.99039">
        <ele>1266</ele>
        <time>2023-07-15T09:09:14+02:00</time>
      </trkpt>
      <trkpt lat="48.01965" lon="6.99068">
        <ele>1273</ele>
        <time>2023-07-15T09:10:07+02:00</time>
      </trkpt>
      <trkpt lat="48.01972" lon="6.991">
        <ele>1277</ele>
        <time>2023-07-15T09:10:45+02:00</time>
      </trkpt>
      <trkpt lat="48.01979" lon="6.99132">
        <ele>1279</ele>
        <time>2023-07-15T09:11:15+02:00</time>
      </trkpt>
      <trkpt lat="48.01987" lon="6.99165">
        <ele>1279</ele>
        <time>2023-07-15T09:11:42+02:00</time>
      </trkpt>
      <trkpt lat="48.02005" lon="6.99187">
        <ele>1279</ele>
        <time>2023-07-15T09:12:06+02:00</time>
      </trkpt>
      <trkpt lat="48.0202" lon="6.99212">
        <ele>1281</ele>
        <time>2023-07-15T09:12:25+02:00</time>
      </trkpt>
      <trkpt lat="48.02032" lon="6.99241">
        <ele>1276</ele>
        <time>2023-07-15T09:12:46+02:00</time>
      </trkpt>
      <trkpt lat="48.02046" lon="6.99269">
        <ele>1283</ele>
        <time>2023-07-15T09:13:06+02:00</time>
      </trkpt>
      <trkpt lat="48.02056" lon="6.99299">
        <ele>1283</ele>
        <time>2023-07-15T09:13:26+02:00</time>
      </trkpt>
      <trkpt lat="48.02071" lon="6.99326">
        <ele>1285</ele>
        <time>2023-07-15T09:13:46+02:00</time>
      </trkpt>
      <trkpt lat="48.02092" lon="6.99339">
        <ele>1284</ele>
        <time>2023-07-15T09:14:10+02:00</time>
      </trkpt>
      <trkpt lat="48.02113" lon="6.99353">
        <ele>1285</ele>
        <time>2023-07-15T09:14:32+02:00</time>
      </trkpt>
      <trkpt lat="48.02131" lon="6.99375">
        <ele>1286</ele>
        <time>2023-07-15T09:15:00+02:00</time>
      </trkpt>
      <trkpt lat="48.02148" lon="6.99397">
        <ele>1287</ele>
        <time>2023-07-15T09:15:23+02:00</time>
      </trkpt>
      <trkpt lat="48.02166" lon="6.99419">
        <ele>1289</ele>
        <time>2023-07-15T09:15:44+02:00</time>
      </trkpt>
      <trkpt lat="48.02188" lon="6.99432">
        <ele>1291</ele>
        <time>2023-07-15T09:16:08+02:00</time>
      </trkpt>
      <trkpt lat="48.02206" lon="6.99456">
        <ele>1296</ele>
        <time>2023-07-15T09:16:44+02:00</time>
      </trkpt>
      <trkpt lat="48.02225" lon="6.99476">
        <ele>1294</ele>
        <time>2023-07-15T09:17:07+02:00</time>
      </trkpt>
      <trkpt lat="48.02243" lon="6.99497">
        <ele>1295</ele>
        <time>2023-07-15T09:17:28+02:00</time>
      </trkpt>
      <trkpt lat="48.02261" lon="6.99519">
        <ele>1298</ele>
        <time>2023-07-15T09:17:49+02:00</time>
      </trkpt>
      <trkpt lat="48.02277" lon="6.99544">
        <ele>1299</ele>
        <time>2023-07-15T09:18:10+02:00</time>
      </trkpt>
      <trkpt lat="48.02292" lon="6.99569">
        <ele>1298</ele>
        <time>2023-07-15T09:18:31+02:00</time>
      </trkpt>
      <trkpt lat="48.02309" lon="6.99592">
        <ele>1298</ele>
        <time>2023-07-15T09:19:07+02:00</time>
      </trkpt>
      <trkpt lat="48.02324" lon="6.99619">
        <ele>1299</ele>
        <time>2023-07-15T09:19:29+02:00</time>
      </trkpt>
      <trkpt lat="48.02338" lon="6.99646">
        <ele>1300</ele>
        <time>2023-07-15T09:19:50+02:00</time>
      </trkpt>
      <trkpt lat="48.02351" lon="6.99673">
        <ele>1302</ele>
        <time>2023-07-15T09:20:10+02:00</time>
      </trkpt>
      <trkpt lat="48.02365" lon="6.99701">
        <ele>1303</ele>
        <time>2023-07-15T09:20:31+02:00</time>
      </trkpt>
      <trkpt lat="48.02375" lon="6.99732">
        <ele>1305</ele>
        <time>2023-07-15T09:20:52+02:00</time>
      </trkpt>
      <trkpt lat="48.02385" lon="6.99763">
        <ele>1304</ele>
        <time>2023-07-15T09:21:20+02:00</time>
      </trkpt>
      <trkpt lat="48.02396" lon="6.99793">
        <ele>1305</ele>
        <time>2023-07-15T09:21:40+02:00</time>
      </trkpt>
      <trkpt lat="48.02411" lon="6.99819">
        <ele>1304</ele>
        <time>2023-07-15T09:21:59+02:00</time>
      </trkpt>
      <trkpt lat="48.02425" lon="6.99846">
        <ele>1304</ele>
        <time>2023-07-15T09:22:19+02:00</time>
      </trkpt>
      <trkpt lat="48.02441" lon="6.9987">
        <ele>1303</ele>
        <time>2023-07-15T09:22:38+02:00</time>
      </trkpt>
      <trkpt lat="48.02456" lon="6.99897">
        <ele>1303</ele>
        <time>2023-07-15T09:22:58+02:00</time>
      </trkpt>
      <trkpt lat="48.0247" lon="6.99923">
        <ele>1304</ele>
        <time>2023-07-15T09:23:18+02:00</time>
      </trkpt>
      <trkpt lat="48.02488" lon="6.99946">
        <ele>1304</ele>
        <time>2023-07-15T09:23:38+02:00</time>
      </trkpt>
      <trkpt lat="48.02507" lon="6.99965">
        <ele>1305</ele>
        <time>2023-07-15T09:23:57+02:00</time>
      </trkpt>
      <trkpt lat="48.02528" lon="6.99979">
        <ele>1305</ele>
        <time>2023-07-15T09:24:17+02:00</time>
      </trkpt>
      <trkpt lat="48.02549" lon="6.99994">
        <ele>1306</ele>
        <time>2023-07-15T09:24:36+02:00</time>
      </trkpt>
      <trkpt lat="48.02568" lon="7.00012">
        <ele>1306</ele>
        <time>2023-07-15T09:24:55+02:00</time>
      </trkpt>
      <trkpt lat="48.02587" lon="7.00032">
        <ele>1306</ele>
        <time>2023-07-15T09:25:15+02:00</time>
      </trkpt>
      <trkpt lat="48.02605" lon="7.00053">
        <ele>1306</ele>
        <time>2023-07-15T09:25:34+02:00</time>
      </trkpt>
      <trkpt lat="48.0262" lon="7.00079">
        <ele>1304</ele>
        <time>2023-07-15T09:25:55+02:00</time>
      </trkpt>
      <trkpt lat="48.02633" lon="7.00108">
        <ele>1303</ele>
        <time>2023-07-15T09:26:15+02:00</time>
      </trkpt>
      <trkpt lat="48.02645" lon="7.00138">
        <ele>1304</ele>
        <time>2023-07-15T09:26:35+02:00</time>
      </trkpt>
      <trkpt lat="48.02654" lon="7.00169">
        <ele>1304</ele>
        <time>2023-07-15T09:26:54+02:00</time>
      </trkpt>
      <trkpt lat="48.02662" lon="7.002">
        <ele>1303</ele>
        <time>2023-07-15T09:27:13+02:00</time>
      </trkpt>
      <trkpt lat="48.02671" lon="7.00232">
        <ele>1302</ele>
        <time>2023-07-15T09:27:33+02:00</time>
      </trkpt>
      <trkpt lat="48.02677" lon="7.00264">
        <ele>1301</ele>
        <time>2023-07-15T09:27:52+02:00</time>
      </trkpt>
      <trkpt lat="48.02682" lon="7.00297">
        <ele>1301</ele>
        <time>2023-07-15T09:28:11+02:00</time>
      </trkpt>
      <trkpt lat="48.02688" lon="7.00331">
        <ele>1300</ele>
        <time>2023-07-15T09:28:31+02:00</time>
      </trkpt>
      <trkpt lat="48.02693" lon="7.00364">
        <ele>1298</ele>
        <time>2023-07-15T09:28:50+02:00</time>
      </trkpt>
      <trkpt lat="48.02699" lon="7.00397">
        <ele>1299</ele>
        <time>2023-07-15T09:29:09+02:00</time>
      </trkpt>
      <trkpt lat="48.02707" lon="7.00429">
        <ele>1298</ele>
        <time>2023-07-15T09:29:29+02:00</time>
      </trkpt>
      <trkpt lat="48.02717" lon="7.0046">
        <ele>1297</ele>
        <time>2023-07-15T09:29:49+02:00</time>
      </trkpt>
      <trkpt lat="48.02728" lon="7.0049">
        <ele>1297</ele>
        <time>2023-07-15T09:30:10+02:00</time>
      </trkpt>
      <trkpt lat="48.0274" lon="7.00518">
        <ele>1296</ele>
        <time>2023-07-15T09:30:30+02:00</time>
      </trkpt>
      <trkpt lat="48.02752" lon="7.00548">
        <ele>1295</ele>
        <time>2023-07-15T09:30:50+02:00</time>
      </trkpt>
      <trkpt lat="48.02766" lon="7.00575">
        <ele>1294</ele>
        <time>2023-07-15T09:31:10+02:00</time>
      </trkpt>
      <trkpt lat="48.02782" lon="7.006">
        <ele>1293</ele>
        <time>2023-07-15T09:31:29+02:00</time>
      </trkpt>
      <trkpt lat="48.028" lon="7.00621">
        <ele>1292</ele>
        <time>2023-07-15T09:31:49+02:00</time>
      </trkpt>
      <trkpt lat="48.02819" lon="7.00638">
        <ele>1290</ele>
        <time>2023-07-15T09:32:10+02:00</time>
      </trkpt>
      <trkpt lat="48.02839" lon="7.00657">
        <ele>1290</ele>
        <time>2023-07-15T09:32:30+02:00</time>
      </trkpt>
      <trkpt lat="48.02858" lon="7.00676">
        <ele>1288</ele>
        <time>2023-07-15T09:32:50+02:00</time>
      </trkpt>
      <trkpt lat="48.02878" lon="7.00693">
        <ele>1289</ele>
        <time>2023-07-15T09:33:10+02:00</time>
      </trkpt>
      <trkpt lat="48.02897" lon="7.00713">
        <ele>1288</ele>
        <time>2023-07-15T09:33:30+02:00</time>
      </trkpt>
      <trkpt lat="48.02918" lon="7.00729">
        <ele>1287</ele>
        <time>2023-07-15T09:33:53+02:00</time>
      </trkpt>
      <trkpt lat="48.02937" lon="7.00747">
        <ele>1287</ele>
        <time>2023-07-15T09:34:14+02:00</time>
      </trkpt>
      <trkpt lat="48.02957" lon="7.00764">
        <ele>1287</ele>
        <time>2023-07-15T09:34:34+02:00</time>
      </trkpt>
      <trkpt lat="48.02977" lon="7.00781">
        <ele>1289</ele>
        <time>2023-07-15T09:34:54+02:00</time>
      </trkpt>
      <trkpt lat="48.02999" lon="7.00793">
        <ele>1289</ele>
        <time>2023-07-15T09:35:15+02:00</time>
      </trkpt>
      <trkpt lat="48.03021" lon="7.00804">
        <ele>1288</ele>
        <time>2023-07-15T09:35:47+02:00</time>
      </trkpt>
      <trkpt lat="48.03017" lon="7.0077">
        <ele>1285</ele>
        <time>2023-07-15T09:36:38+02:00</time>
      </trkpt>
      <trkpt lat="48.0302" lon="7.00736">
        <ele>1282</ele>
        <time>2023-07-15T09:36:58+02:00</time>
      </trkpt>
      <trkpt lat="48.03025" lon="7.00701">
        <ele>1278</ele>
        <time>2023-07-15T09:37:20+02:00</time>
      </trkpt>
      <trkpt lat="48.03028" lon="7.00668">
        <ele>1274</ele>
        <time>2023-07-15T09:37:39+02:00</time>
      </trkpt>
      <trkpt lat="48.03033" lon="7.00634">
        <ele>1272</ele>
        <time>2023-07-15T09:37:59+02:00</time>
      </trkpt>
      <trkpt lat="48.03034" lon="7.00599">
        <ele>1267</ele>
        <time>2023-07-15T09:38:20+02:00</time>
      </trkpt>
      <trkpt lat="48.03024" lon="7.00567">
        <ele>1264</ele>
        <time>2023-07-15T09:38:42+02:00</time>
      </trkpt>
      <trkpt lat="48.03013" lon="7.00538">
        <ele>1260</ele>
        <time>2023-07-15T09:39:01+02:00</time>
      </trkpt>
      <trkpt lat="48.03022" lon="7.0057">
        <ele>1265</ele>
        <time>2023-07-15T10:02:29+02:00</time>
      </trkpt>
      <trkpt lat="48.03032" lon="7.006">
        <ele>1268</ele>
        <time>2023-07-15T10:02:57+02:00</time>
      </trkpt>
      <trkpt lat="48.03031" lon="7.00634">
        <ele>1270</ele>
        <time>2023-07-15T10:03:23+02:00</time>
      </trkpt>
      <trkpt lat="48.03027" lon="7.00669">
        <ele>1275</ele>
        <time>2023-07-15T10:03:49+02:00</time>
      </trkpt>
      <trkpt lat="48.03022" lon="7.00702">
        <ele>1278</ele>
        <time>2023-07-15T10:04:16+02:00</time>
      </trkpt>
      <trkpt lat="48.0302" lon="7.00736">
        <ele>1283</ele>
        <time>2023-07-15T10:04:42+02:00</time>
      </trkpt>
      <trkpt lat="48.03016" lon="7.0077">
        <ele>1288</ele>
        <time>2023-07-15T10:05:09+02:00</time>
      </trkpt>
      <trkpt lat="48.03002" lon="7.00797">
        <ele>1289</ele>
        <time>2023-07-15T10:05:45+02:00</time>
      </trkpt>
      <trkpt lat="48.0298" lon="7.00783">
        <ele>1288</ele>
        <time>2023-07-15T10:06:07+02:00</time>
      </trkpt>
      <trkpt lat="48.02959" lon="7.00766">
        <ele>1286</ele>
        <time>2023-07-15T10:06:29+02:00</time>
      </trkpt>
      <trkpt lat="48.02939" lon="7.00749">
        <ele>1286</ele>
        <time>2023-07-15T10:06:50+02:00</time>
      </trkpt>
      <trkpt lat="48.0292" lon="7.00732">
        <ele>1286</ele>
        <time>2023-07-15T10:07:10+02:00</time>
      </trkpt>
      <trkpt lat="48.029" lon="7.00714">
        <ele>1285</ele>
        <time>2023-07-15T10:07:31+02:00</time>
      </trkpt>
      <trkpt lat="48.02884" lon="7.00739">
        <ele>1289</ele>
        <time>2023-07-15T10:07:52+02:00</time>
      </trkpt>
      <trkpt lat="48.02878" lon="7.00772">
        <ele>1289</ele>
        <time>2023-07-15T10:08:14+02:00</time>
      </trkpt>
      <trkpt lat="48.02876" lon="7.00806">
        <ele>1288</ele>
        <time>2023-07-15T10:08:46+02:00</time>
      </trkpt>
      <trkpt lat="48.02871" lon="7.0084">
        <ele>1285</ele>
        <time>2023-07-15T10:09:10+02:00</time>
      </trkpt>
      <trkpt lat="48.02867" lon="7.00873">
        <ele>1283</ele>
        <time>2023-07-15T10:09:33+02:00</time>
      </trkpt>
      <trkpt lat="48.0287" lon="7.00907">
        <ele>1279</ele>
        <time>2023-07-15T10:10:02+02:00</time>
      </trkpt>
      <trkpt lat="48.02883" lon="7.00933">
        <ele>1282</ele>
        <time>2023-07-15T10:10:29+02:00</time>
      </trkpt>
      <trkpt lat="48.02896" lon="7.00963">
        <ele>1286</ele>
        <time>2023-07-15T10:11:33+02:00</time>
      </trkpt>
      <trkpt lat="48.02899" lon="7.00996">
        <ele>1287</ele>
        <time>2023-07-15T10:11:57+02:00</time>
      </trkpt>
      <trkpt lat="48.02906" lon="7.01028">
        <ele>1290</ele>
        <time>2023-07-15T10:12:19+02:00</time>
      </trkpt>
      <trkpt lat="48.02915" lon="7.0106">
        <ele>1293</ele>
        <time>2023-07-15T10:12:44+02:00</time>
      </trkpt>
      <trkpt lat="48.02928" lon="7.01088">
        <ele>1293</ele>
        <time>2023-07-15T10:13:06+02:00</time>
      </trkpt>
      <trkpt lat="48.02946" lon="7.01108">
        <ele>1295</ele>
        <time>2023-07-15T10:13:35+02:00</time>
      </trkpt>
      <trkpt lat="48.02965" lon="7.01127">
        <ele>1296</ele>
        <time>2023-07-15T10:13:55+02:00</time>
      </trkpt>
      <trkpt lat="48.02985" lon="7.01145">
        <ele>1296</ele>
        <time>2023-07-15T10:14:16+02:00</time>
      </trkpt>
      <trkpt lat="48.03006" lon="7.01159">
        <ele>1297</ele>
        <time>2023-07-15T10:14:38+02:00</time>
      </trkpt>
      <trkpt lat="48.03024" lon="7.01181">
        <ele>1297</ele>
        <time>2023-07-15T10:15:15+02:00</time>
      </trkpt>
      <trkpt lat="48.03043" lon="7.01201">
        <ele>1298</ele>
        <time>2023-07-15T10:15:36+02:00</time>
      </trkpt>
      <trkpt lat="48.03056" lon="7.01229">
        <ele>1298</ele>
        <time>2023-07-15T10:15:57+02:00</time>
      </trkpt>
      <trkpt lat="48.03069" lon="7.01256">
        <ele>1297</ele>
        <time>2023-07-15T10:16:15+02:00</time>
      </trkpt>
      <trkpt lat="48.03082" lon="7.01285">
        <ele>1297</ele>
        <time>2023-07-15T10:16:34+02:00</time>
      </trkpt>
      <trkpt lat="48.03096" lon="7.01313">
        <ele>1297</ele>
        <time>2023-07-15T10:16:54+02:00</time>
      </trkpt>
      <trkpt lat="48.03113" lon="7.01336">
        <ele>1298</ele>
        <time>2023-07-15T10:17:15+02:00</time>
      </trkpt>
      <trkpt lat="48.03133" lon="7.01355">
        <ele>1297</ele>
        <time>2023-07-15T10:17:39+02:00</time>
      </trkpt>
      <trkpt lat="48.03146" lon="7.01383">
        <ele>1294</ele>
        <time>2023-07-15T10:18:17+02:00</time>
      </trkpt>
      <trkpt lat="48.03156" lon="7.01414">
        <ele>1294</ele>
        <time>2023-07-15T10:18:38+02:00</time>
      </trkpt>
      <trkpt lat="48.0317" lon="7.01442">
        <ele>1293</ele>
        <time>2023-07-15T10:18:58+02:00</time>
      </trkpt>
      <trkpt lat="48.03157" lon="7.01414">
        <ele>1293</ele>
        <time>2023-07-15T10:20:25+02:00</time>
      </trkpt>
      <trkpt lat="48.03148" lon="7.01382">
        <ele>1294</ele>
        <time>2023-07-15T10:20:47+02:00</time>
      </trkpt>
      <trkpt lat="48.03145" lon="7.01348">
        <ele>1297</ele>
        <time>2023-07-15T10:21:17+02:00</time>
      </trkpt>
      <trkpt lat="48.03156" lon="7.01318">
        <ele>1300</ele>
        <time>2023-07-15T10:21:48+02:00</time>
      </trkpt>
      <trkpt lat="48.03168" lon="7.01288">
        <ele>1304</ele>
        <time>2023-07-15T10:22:17+02:00</time>
      </trkpt>
      <trkpt lat="48.03184" lon="7.01264">
        <ele>1302</ele>
        <time>2023-07-15T10:22:41+02:00</time>
      </trkpt>
      <trkpt lat="48.03203" lon="7.01243">
        <ele>1303</ele>
        <time>2023-07-15T10:23:07+02:00</time>
      </trkpt>
      <trkpt lat="48.03224" lon="7.01233">
        <ele>1303</ele>
        <time>2023-07-15T10:23:35+02:00</time>
      </trkpt>
      <trkpt lat="48.0324" lon="7.01207">
        <ele>1299</ele>
        <time>2023-07-15T10:23:56+02:00</time>
      </trkpt>
      <trkpt lat="48.03252" lon="7.01179">
        <ele>1298</ele>
        <time>2023-07-15T10:24:15+02:00</time>
      </trkpt>
      <trkpt lat="48.03262" lon="7.01148">
        <ele>1298</ele>
        <time>2023-07-15T10:24:34+02:00</time>
      </trkpt>
      <trkpt lat="48.03271" lon="7.01115">
        <ele>1298</ele>
        <time>2023-07-15T10:24:55+02:00</time>
      </trkpt>
      <trkpt lat="48.03286" lon="7.01089">
        <ele>1298</ele>
        <time>2023-07-15T10:25:15+02:00</time>
      </trkpt>
      <trkpt lat="48.03303" lon="7.01065">
        <ele>1300</ele>
        <time>2023-07-15T10:25:36+02:00</time>
      </trkpt>
      <trkpt lat="48.03322" lon="7.01046">
        <ele>1299</ele>
        <time>2023-07-15T10:25:56+02:00</time>
      </trkpt>
      <trkpt lat="48.03343" lon="7.01032">
        <ele>1298</ele>
        <time>2023-07-15T10:26:17+02:00</time>
      </trkpt>
      <trkpt lat="48.03365" lon="7.01031">
        <ele>1296</ele>
        <time>2023-07-15T10:26:39+02:00</time>
      </trkpt>
      <trkpt lat="48.03389" lon="7.01034">
        <ele>1293</ele>
        <time>2023-07-15T10:27:03+02:00</time>
      </trkpt>
      <trkpt lat="48.03411" lon="7.01041">
        <ele>1290</ele>
        <time>2023-07-15T10:27:24+02:00</time>
      </trkpt>
      <trkpt lat="48.03433" lon="7.0105">
        <ele>1286</ele>
        <time>2023-07-15T10:27:45+02:00</time>
      </trkpt>
      <trkpt lat="48.03455" lon="7.01062">
        <ele>1283</ele>
        <time>2023-07-15T10:28:07+02:00</time>
      </trkpt>
      <trkpt lat="48.03476" lon="7.01078">
        <ele>1280</ele>
        <time>2023-07-15T10:28:28+02:00</time>
      </trkpt>
      <trkpt lat="48.03473" lon="7.01111">
        <ele>1280</ele>
        <time>2023-07-15T10:29:24+02:00</time>
      </trkpt>
      <trkpt lat="48.03494" lon="7.01124">
        <ele>1278</ele>
        <time>2023-07-15T10:34:50+02:00</time>
      </trkpt>
      <trkpt lat="48.03515" lon="7.01136">
        <ele>1280</ele>
        <time>2023-07-15T10:35:11+02:00</time>
      </trkpt>
      <trkpt lat="48.03538" lon="7.01137">
        <ele>1285</ele>
        <time>2023-07-15T10:35:35+02:00</time>
      </trkpt>
      <trkpt lat="48.03561" lon="7.0113">
        <ele>1289</ele>
        <time>2023-07-15T10:35:56+02:00</time>
      </trkpt>
      <trkpt lat="48.03554" lon="7.01162">
        <ele>1293</ele>
        <time>2023-07-15T10:36:16+02:00</time>
      </trkpt>
      <trkpt lat="48.0355" lon="7.01195">
        <ele>1292</ele>
        <time>2023-07-15T10:36:37+02:00</time>
      </trkpt>
      <trkpt lat="48.03552" lon="7.01229">
        <ele>1294</ele>
        <time>2023-07-15T10:36:57+02:00</time>
      </trkpt>
      <trkpt lat="48.03568" lon="7.01254">
        <ele>1296</ele>
        <time>2023-07-15T10:37:19+02:00</time>
      </trkpt>
      <trkpt lat="48.03589" lon="7.01266">
        <ele>1299</ele>
        <time>2023-07-15T10:37:44+02:00</time>
      </trkpt>
      <trkpt lat="48.03609" lon="7.01248">
        <ele>1305</ele>
        <time>2023-07-15T10:38:12+02:00</time>
      </trkpt>
      <trkpt lat="48.03631" lon="7.01237">
        <ele>1309</ele>
        <time>2023-07-15T10:38:35+02:00</time>
      </trkpt>
      <trkpt lat="48.03644" lon="7.01267">
        <ele>1315</ele>
        <time>2023-07-15T10:39:07+02:00</time>
      </trkpt>
      <trkpt lat="48.03666" lon="7.01277">
        <ele>1319</ele>
        <time>2023-07-15T10:39:36+02:00</time>
      </trkpt>
      <trkpt lat="48.03677" lon="7.01306">
        <ele>1326</ele>
        <time>2023-07-15T10:40:07+02:00</time>
      </trkpt>
      <trkpt lat="48.0367" lon="7.01338">
        <ele>1328</ele>
        <time>2023-07-15T10:40:32+02:00</time>
      </trkpt>
      <trkpt lat="48.03685" lon="7.01363">
        <ele>1335</ele>
        <time>2023-07-15T10:41:11+02:00</time>
      </trkpt>
      <trkpt lat="48.03709" lon="7.01363">
        <ele>1341</ele>
        <time>2023-07-15T10:41:34+02:00</time>
      </trkpt>
      <trkpt lat="48.03702" lon="7.01397">
        <ele>1343</ele>
        <time>2023-07-15T10:41:54+02:00</time>
      </trkpt>
      <trkpt lat="48.03697" lon="7.0143">
        <ele>1344</ele>
        <time>2023-07-15T10:42:16+02:00</time>
      </trkpt>
      <trkpt lat="48.03702" lon="7.01463">
        <ele>1347</ele>
        <time>2023-07-15T10:42:42+02:00</time>
      </trkpt>
      <trkpt lat="48.03715" lon="7.01492">
        <ele>1352</ele>
        <time>2023-07-15T10:43:10+02:00</time>
      </trkpt>
      <trkpt lat="48.03712" lon="7.01526">
        <ele>1354</ele>
        <time>2023-07-15T10:43:40+02:00</time>
      </trkpt>
      <trkpt lat="48.0372" lon="7.01558">
        <ele>1355</ele>
        <time>2023-07-15T10:44:04+02:00</time>
      </trkpt>
      <trkpt lat="48.03723" lon="7.01591">
        <ele>1359</ele>
        <time>2023-07-15T10:44:28+02:00</time>
      </trkpt>
      <trkpt lat="48.03723" lon="7.01626">
        <ele>1359</ele>
        <time>2023-07-15T10:44:57+02:00</time>
      </trkpt>
      <trkpt lat="48.03724" lon="7.0166">
        <ele>1360</ele>
        <time>2023-07-15T10:45:21+02:00</time>
      </trkpt>
      <trkpt lat="48.03743" lon="7.01678">
        <ele>1363</ele>
        <time>2023-07-15T10:46:31+02:00</time>
      </trkpt>
      <trkpt lat="48.03754" lon="7.01648">
        <ele>1366</ele>
        <time>2023-07-15T10:47:10+02:00</time>
      </trkpt>
      <trkpt lat="48.03761" lon="7.01616">
        <ele>1366</ele>
        <time>2023-07-15T10:50:33+02:00</time>
      </trkpt>
      <trkpt lat="48.03768" lon="7.01584">
        <ele>1366</ele>
        <time>2023-07-15T10:50:55+02:00</time>
      </trkpt>
      <trkpt lat="48.03763" lon="7.01551">
        <ele>1364</ele>
        <time>2023-07-15T10:51:24+02:00</time>
      </trkpt>
      <trkpt lat="48.0378" lon="7.01575">
        <ele>1363</ele>
        <time>2023-07-15T10:52:54+02:00</time>
      </trkpt>
      <trkpt lat="48.03796" lon="7.01551">
        <ele>1361</ele>
        <time>2023-07-15T10:53:18+02:00</time>
      </trkpt>
      <trkpt lat="48.03793" lon="7.01517">
        <ele>1358</ele>
        <time>2023-07-15T10:53:40+02:00</time>
      </trkpt>
      <trkpt lat="48.03816" lon="7.01511">
        <ele>1355</ele>
        <time>2023-07-15T10:54:06+02:00</time>
      </trkpt>
      <trkpt lat="48.03836" lon="7.01494">
        <ele>1353</ele>
        <time>2023-07-15T10:54:28+02:00</time>
      </trkpt>
      <trkpt lat="48.03831" lon="7.0146">
        <ele>1349</ele>
        <time>2023-07-15T10:55:08+02:00</time>
      </trkpt>
      <trkpt lat="48.03821" lon="7.01428">
        <ele>1345</ele>
        <time>2023-07-15T10:55:30+02:00</time>
      </trkpt>
      <trkpt lat="48.03803" lon="7.01405">
        <ele>1344</ele>
        <time>2023-07-15T10:55:49+02:00</time>
      </trkpt>
      <trkpt lat="48.03801" lon="7.01371">
        <ele>1342</ele>
        <time>2023-07-15T10:56:10+02:00</time>
      </trkpt>
      <trkpt lat="48.03822" lon="7.01354">
        <ele>1339</ele>
        <time>2023-07-15T10:56:29+02:00</time>
      </trkpt>
      <trkpt lat="48.03841" lon="7.01338">
        <ele>1337</ele>
        <time>2023-07-15T10:56:49+02:00</time>
      </trkpt>
      <trkpt lat="48.0386" lon="7.01316">
        <ele>1332</ele>
        <time>2023-07-15T10:57:09+02:00</time>
      </trkpt>
      <trkpt lat="48.03876" lon="7.01292">
        <ele>1330</ele>
        <time>2023-07-15T10:57:27+02:00</time>
      </trkpt>
      <trkpt lat="48.03893" lon="7.01269">
        <ele>1328</ele>
        <time>2023-07-15T10:57:45+02:00</time>
      </trkpt>
      <trkpt lat="48.03904" lon="7.01238">
        <ele>1325</ele>
        <time>2023-07-15T10:58:08+02:00</time>
      </trkpt>
      <trkpt lat="48.03915" lon="7.01209">
        <ele>1318</ele>
        <time>2023-07-15T10:58:32+02:00</time>
      </trkpt>
      <trkpt lat="48.03924" lon="7.01178">
        <ele>1311</ele>
        <time>2023-07-15T10:59:00+02:00</time>
      </trkpt>
      <trkpt lat="48.03939" lon="7.01152">
        <ele>1305</ele>
        <time>2023-07-15T10:59:22+02:00</time>
      </trkpt>
      <trkpt lat="48.03956" lon="7.01129">
        <ele>1302</ele>
        <time>2023-07-15T10:59:43+02:00</time>
      </trkpt>
      <trkpt lat="48.03963" lon="7.01097">
        <ele>1295</ele>
        <time>2023-07-15T11:00:07+02:00</time>
      </trkpt>
      <trkpt lat="48.03975" lon="7.01067">
        <ele>1290</ele>
        <time>2023-07-15T11:00:50+02:00</time>
      </trkpt>
      <trkpt lat="48.03989" lon="7.01037">
        <ele>1283</ele>
        <time>2023-07-15T11:01:14+02:00</time>
      </trkpt>
      <trkpt lat="48.04" lon="7.01007">
        <ele>1277</ele>
        <time>2023-07-15T11:01:43+02:00</time>
      </trkpt>
      <trkpt lat="48.04011" lon="7.00977">
        <ele>1273</ele>
        <time>2023-07-15T11:02:06+02:00</time>
      </trkpt>
      <trkpt lat="48.04027" lon="7.00951">
        <ele>1270</ele>
        <time>2023-07-15T11:02:26+02:00</time>
      </trkpt>
      <trkpt lat="48.04035" lon="7.00918">
        <ele>1271</ele>
        <time>2023-07-15T11:14:08+02:00</time>
      </trkpt>
      <trkpt lat="48.04039" lon="7.00884">
        <ele>1269</ele>
        <time>2023-07-15T11:14:28+02:00</time>
      </trkpt>
      <trkpt lat="48.04047" lon="7.00852">
        <ele>1269</ele>
        <time>2023-07-15T11:14:47+02:00</time>
      </trkpt>
      <trkpt lat="48.04052" lon="7.00818">
        <ele>1267</ele>
        <time>2023-07-15T11:15:06+02:00</time>
      </trkpt>
      <trkpt lat="48.04057" lon="7.00784">
        <ele>1265</ele>
        <time>2023-07-15T11:15:25+02:00</time>
      </trkpt>
      <trkpt lat="48.04061" lon="7.00751">
        <ele>1263</ele>
        <time>2023-07-15T11:15:44+02:00</time>
      </trkpt>
      <trkpt lat="48.04063" lon="7.00717">
        <ele>1260</ele>
        <time>2023-07-15T11:16:03+02:00</time>
      </trkpt>
      <trkpt lat="48.04065" lon="7.00683">
        <ele>1256</ele>
        <time>2023-07-15T11:16:22+02:00</time>
      </trkpt>
      <trkpt lat="48.04072" lon="7.0065">
        <ele>1253</ele>
        <time>2023-07-15T11:16:42+02:00</time>
      </trkpt>
      <trkpt lat="48.0408" lon="7.00617">
        <ele>1249</ele>
        <time>2023-07-15T11:17:01+02:00</time>
      </trkpt>
      <trkpt lat="48.04087" lon="7.00585">
        <ele>1246</ele>
        <time>2023-07-15T11:17:23+02:00</time>
      </trkpt>
      <trkpt lat="48.04096" lon="7.00552">
        <ele>1243</ele>
        <time>2023-07-15T11:17:45+02:00</time>
      </trkpt>
      <trkpt lat="48.04106" lon="7.0052">
        <ele>1240</ele>
        <time>2023-07-15T11:18:09+02:00</time>
      </trkpt>
      <trkpt lat="48.04118" lon="7.00491">
        <ele>1235</ele>
        <time>2023-07-15T11:18:30+02:00</time>
      </trkpt>
      <trkpt lat="48.04133" lon="7.00465">
        <ele>1232</ele>
        <time>2023-07-15T11:18:49+02:00</time>
      </trkpt>
      <trkpt lat="48.04149" lon="7.00442">
        <ele>1231</ele>
        <time>2023-07-15T11:19:08+02:00</time>
      </trkpt>
      <trkpt lat="48.04164" lon="7.00416">
        <ele>1227</ele>
        <time>2023-07-15T11:19:30+02:00</time>
      </trkpt>
      <trkpt lat="48.04181" lon="7.00393">
        <ele>1226</ele>
        <time>2023-07-15T11:19:52+02:00</time>
      </trkpt>
      <trkpt lat="48.04199" lon="7.00371">
        <ele>1220</ele>
        <time>2023-07-15T11:20:47+02:00</time>
      </trkpt>
      <trkpt lat="48.04217" lon="7.00349">
        <ele>1217</ele>
        <time>2023-07-15T11:21:09+02:00</time>
      </trkpt>
      <trkpt lat="48.04233" lon="7.00324">
        <ele>1216</ele>
        <time>2023-07-15T11:21:30+02:00</time>
      </trkpt>
      <trkpt lat="48.04253" lon="7.00306">
        <ele>1213</ele>
        <time>2023-07-15T11:21:52+02:00</time>
      </trkpt>
      <trkpt lat="48.04275" lon="7.00298">
        <ele>1210</ele>
        <time>2023-07-15T11:22:13+02:00</time>
      </trkpt>
      <trkpt lat="48.04298" lon="7.00299">
        <ele>1209</ele>
        <time>2023-07-15T11:22:34+02:00</time>
      </trkpt>
      <trkpt lat="48.0428" lon="7.00277">
        <ele>1204</ele>
        <time>2023-07-15T11:23:00+02:00</time>
      </trkpt>
      <trkpt lat="48.04273" lon="7.00245">
        <ele>1203</ele>
        <time>2023-07-15T11:25:39+02:00</time>
      </trkpt>
      <trkpt lat="48.04285" lon="7.00216">
        <ele>1194</ele>
        <time>2023-07-15T11:26:26+02:00</time>
      </trkpt>
      <trkpt lat="48.04305" lon="7.00198">
        <ele>1190</ele>
        <time>2023-07-15T11:26:50+02:00</time>
      </trkpt>
      <trkpt lat="48.04329" lon="7.00195">
        <ele>1185</ele>
        <time>2023-07-15T11:27:14+02:00</time>
      </trkpt>
      <trkpt lat="48.04331" lon="7.00161">
        <ele>1178</ele>
        <time>2023-07-15T11:27:47+02:00</time>
      </trkpt>
      <trkpt lat="48.04321" lon="7.0013">
        <ele>1174</ele>
        <time>2023-07-15T11:28:08+02:00</time>
      </trkpt>
      <trkpt lat="48.04304" lon="7.00108">
        <ele>1170</ele>
        <time>2023-07-15T11:28:30+02:00</time>
      </trkpt>
      <trkpt lat="48.04305" lon="7.00073">
        <ele>1164</ele>
        <time>2023-07-15T11:31:52+02:00</time>
      </trkpt>
      <trkpt lat="48.04327" lon="7.00067">
        <ele>1156</ele>
        <time>2023-07-15T11:32:49+02:00</time>
      </trkpt>
      <trkpt lat="48.04316" lon="7.00037">
        <ele>1153</ele>
        <time>2023-07-15T11:33:13+02:00</time>
      </trkpt>
      <trkpt lat="48.043" lon="7.00012">
        <ele>1148</ele>
        <time>2023-07-15T11:33:36+02:00</time>
      </trkpt>
      <trkpt lat="48.04279" lon="7">
        <ele>1142</ele>
        <time>2023-07-15T11:33:58+02:00</time>
      </trkpt>
      <trkpt lat="48.04257" lon="6.99993">
        <ele>1145</ele>
        <time>2023-07-15T11:34:16+02:00</time>
      </trkpt>
      <trkpt lat="48.04235" lon="6.99981">
        <ele>1143</ele>
        <time>2023-07-15T11:34:37+02:00</time>
      </trkpt>
      <trkpt lat="48.04214" lon="6.99971">
        <ele>1139</ele>
        <time>2023-07-15T11:35:01+02:00</time>
      </trkpt>
      <trkpt lat="48.04191" lon="6.99964">
        <ele>1132</ele>
        <time>2023-07-15T11:35:26+02:00</time>
      </trkpt>
      <trkpt lat="48.04172" lon="6.99946">
        <ele>1129</ele>
        <time>2023-07-15T11:35:46+02:00</time>
      </trkpt>
      <trkpt lat="48.04149" lon="6.99938">
        <ele>1124</ele>
        <time>2023-07-15T11:36:10+02:00</time>
      </trkpt>
      <trkpt lat="48.04126" lon="6.99943">
        <ele>1122</ele>
        <time>2023-07-15T11:36:32+02:00</time>
      </trkpt>
      <trkpt lat="48.04129" lon="6.99909">
        <ele>1116</ele>
        <time>2023-07-15T11:36:54+02:00</time>
      </trkpt>
      <trkpt lat="48.04151" lon="6.99902">
        <ele>1116</ele>
        <time>2023-07-15T11:38:32+02:00</time>
      </trkpt>
      <trkpt lat="48.04171" lon="6.99887">
        <ele>1116</ele>
        <time>2023-07-15T11:38:54+02:00</time>
      </trkpt>
      <trkpt lat="48.04192" lon="6.99871">
        <ele>1118</ele>
        <time>2023-07-15T11:39:19+02:00</time>
      </trkpt>
      <trkpt lat="48.04211" lon="6.99853">
        <ele>1116</ele>
        <time>2023-07-15T11:39:39+02:00</time>
      </trkpt>
      <trkpt lat="48.04233" lon="6.9984">
        <ele>1112</ele>
        <time>2023-07-15T11:40:01+02:00</time>
      </trkpt>
      <trkpt lat="48.04255" lon="6.99836">
        <ele>1111</ele>
        <time>2023-07-15T11:40:17+02:00</time>
      </trkpt>
      <trkpt lat="48.04278" lon="6.99834">
        <ele>1107</ele>
        <time>2023-07-15T11:40:38+02:00</time>
      </trkpt>
      <trkpt lat="48.04299" lon="6.9985">
        <ele>1103</ele>
        <time>2023-07-15T11:41:01+02:00</time>
      </trkpt>
      <trkpt lat="48.04316" lon="6.99876">
        <ele>1102</ele>
        <time>2023-07-15T11:41:22+02:00</time>
      </trkpt>
      <trkpt lat="48.04333" lon="6.99899">
        <ele>1103</ele>
        <time>2023-07-15T11:41:42+02:00</time>
      </trkpt>
      <trkpt lat="48.04352" lon="6.99919">
        <ele>1104</ele>
        <time>2023-07-15T11:42:05+02:00</time>
      </trkpt>
      <trkpt lat="48.04368" lon="6.99943">
        <ele>1103</ele>
        <time>2023-07-15T11:42:28+02:00</time>
      </trkpt>
      <trkpt lat="48.04384" lon="6.99967">
        <ele>1106</ele>
        <time>2023-07-15T11:42:48+02:00</time>
      </trkpt>
      <trkpt lat="48.044" lon="6.99992">
        <ele>1103</ele>
        <time>2023-07-15T11:43:15+02:00</time>
      </trkpt>
      <trkpt lat="48.04419" lon="7.00011">
        <ele>1107</ele>
        <time>2023-07-15T11:43:38+02:00</time>
      </trkpt>
      <trkpt lat="48.04428" lon="7.00043">
        <ele>1104</ele>
        <time>2023-07-15T11:44:03+02:00</time>
      </trkpt>
      <trkpt lat="48.04435" lon="7.00075">
        <ele>1104</ele>
        <time>2023-07-15T11:44:25+02:00</time>
      </trkpt>
      <trkpt lat="48.04436" lon="7.0011">
        <ele>1106</ele>
        <time>2023-07-15T11:44:48+02:00</time>
      </trkpt>
      <trkpt lat="48.04444" lon="7.00143">
        <ele>1104</ele>
        <time>2023-07-15T11:45:11+02:00</time>
      </trkpt>
      <trkpt lat="48.04451" lon="7.00175">
        <ele>1105</ele>
        <time>2023-07-15T11:45:33+02:00</time>
      </trkpt>
      <trkpt lat="48.04455" lon="7.00209">
        <ele>1108</ele>
        <time>2023-07-15T11:45:54+02:00</time>
      </trkpt>
      <trkpt lat="48.04463" lon="7.00241">
        <ele>1110</ele>
        <time>2023-07-15T11:46:25+02:00</time>
      </trkpt>
      <trkpt lat="48.04476" lon="7.00268">
        <ele>1112</ele>
        <time>2023-07-15T11:46:49+02:00</time>
      </trkpt>
      <trkpt lat="48.04488" lon="7.00297">
        <ele>1107</ele>
        <time>2023-07-15T11:47:20+02:00</time>
      </trkpt>
      <trkpt lat="48.04504" lon="7.00321">
        <ele>1115</ele>
        <time>2023-07-15T11:47:45+02:00</time>
      </trkpt>
      <trkpt lat="48.04525" lon="7.00338">
        <ele>1117</ele>
        <time>2023-07-15T11:48:19+02:00</time>
      </trkpt>
      <trkpt lat="48.04542" lon="7.00362">
        <ele>1122</ele>
        <time>2023-07-15T12:05:57+02:00</time>
      </trkpt>
      <trkpt lat="48.0456" lon="7.00382">
        <ele>1115</ele>
        <time>2023-07-15T12:06:53+02:00</time>
      </trkpt>
      <trkpt lat="48.04582" lon="7.00395">
        <ele>1116</ele>
        <time>2023-07-15T12:07:22+02:00</time>
      </trkpt>
      <trkpt lat="48.04604" lon="7.00401">
        <ele>1115</ele>
        <time>2023-07-15T12:07:44+02:00</time>
      </trkpt>
      <trkpt lat="48.04623" lon="7.00421">
        <ele>1116</ele>
        <time>2023-07-15T12:08:05+02:00</time>
      </trkpt>
      <trkpt lat="48.04644" lon="7.00433">
        <ele>1120</ele>
        <time>2023-07-15T12:08:37+02:00</time>
      </trkpt>
      <trkpt lat="48.04667" lon="7.0044">
        <ele>1114</ele>
        <time>2023-07-15T12:09:00+02:00</time>
      </trkpt>
      <trkpt lat="48.0469" lon="7.00444">
        <ele>1118</ele>
        <time>2023-07-15T12:09:25+02:00</time>
      </trkpt>
      <trkpt lat="48.04713" lon="7.00445">
        <ele>1118</ele>
        <time>2023-07-15T12:09:47+02:00</time>
      </trkpt>
      <trkpt lat="48.04736" lon="7.00453">
        <ele>1120</ele>
        <time>2023-07-15T12:10:10+02:00</time>
      </trkpt>
      <trkpt lat="48.04759" lon="7.00457">
        <ele>1117</ele>
        <time>2023-07-15T12:10:31+02:00</time>
      </trkpt>
      <trkpt lat="48.04782" lon="7.00455">
        <ele>1117</ele>
        <time>2023-07-15T12:10:53+02:00</time>
      </trkpt>
      <trkpt lat="48.04806" lon="7.00455">
        <ele>1115</ele>
        <time>2023-07-15T12:11:14+02:00</time>
      </trkpt>
      <trkpt lat="48.04828" lon="7.00446">
        <ele>1116</ele>
        <time>2023-07-15T12:11:36+02:00</time>
      </trkpt>
      <trkpt lat="48.04852" lon="7.00441">
        <ele>1113</ele>
        <time>2023-07-15T12:11:58+02:00</time>
      </trkpt>
      <trkpt lat="48.04874" lon="7.00442">
        <ele>1110</ele>
        <time>2023-07-15T12:12:15+02:00</time>
      </trkpt>
      <trkpt lat="48.04897" lon="7.00439">
        <ele>1106</ele>
        <time>2023-07-15T12:12:41+02:00</time>
      </trkpt>
      <trkpt lat="48.0492" lon="7.00434">
        <ele>1108</ele>
        <time>2023-07-15T12:13:02+02:00</time>
      </trkpt>
      <trkpt lat="48.04943" lon="7.00429">
        <ele>1106</ele>
        <time>2023-07-15T12:13:22+02:00</time>
      </trkpt>
      <trkpt lat="48.04966" lon="7.00425">
        <ele>1108</ele>
        <time>2023-07-15T12:14:08+02:00</time>
      </trkpt>
      <trkpt lat="48.0499" lon="7.0043">
        <ele>1110</ele>
        <time>2023-07-15T12:14:34+02:00</time>
      </trkpt>
      <trkpt lat="48.05012" lon="7.00438">
        <ele>1110</ele>
        <time>2023-07-15T12:14:53+02:00</time>
      </trkpt>
      <trkpt lat="48.05034" lon="7.00449">
        <ele>1111</ele>
        <time>2023-07-15T12:15:15+02:00</time>
      </trkpt>
      <trkpt lat="48.05056" lon="7.00457">
        <ele>1114</ele>
        <time>2023-07-15T12:15:44+02:00</time>
      </trkpt>
      <trkpt lat="48.05079" lon="7.00463">
        <ele>1114</ele>
        <time>2023-07-15T12:16:03+02:00</time>
      </trkpt>
      <trkpt lat="48.05102" lon="7.00465">
        <ele>1114</ele>
        <time>2023-07-15T12:16:25+02:00</time>
      </trkpt>
      <trkpt lat="48.05124" lon="7.00471">
        <ele>1114</ele>
        <time>2023-07-15T12:16:47+02:00</time>
      </trkpt>
      <trkpt lat="48.05149" lon="7.00471">
        <ele>1114</ele>
        <time>2023-07-15T12:17:08+02:00</time>
      </trkpt>
      <trkpt lat="48.05172" lon="7.00472">
        <ele>1112</ele>
        <time>2023-07-15T12:17:30+02:00</time>
      </trkpt>
      <trkpt lat="48.05194" lon="7.00479">
        <ele>1113</ele>
        <time>2023-07-15T12:17:50+02:00</time>
      </trkpt>
      <trkpt lat="48.05218" lon="7.00486">
        <ele>1114</ele>
        <time>2023-07-15T12:18:07+02:00</time>
      </trkpt>
      <trkpt lat="48.0524" lon="7.00496">
        <ele>1113</ele>
        <time>2023-07-15T12:18:30+02:00</time>
      </trkpt>
      <trkpt lat="48.05262" lon="7.00506">
        <ele>1116</ele>
        <time>2023-07-15T12:18:51+02:00</time>
      </trkpt>
      <trkpt lat="48.05283" lon="7.00519">
        <ele>1113</ele>
        <time>2023-07-15T12:19:14+02:00</time>
      </trkpt>
      <trkpt lat="48.05305" lon="7.00531">
        <ele>1115</ele>
        <time>2023-07-15T12:19:34+02:00</time>
      </trkpt>
      <trkpt lat="48.05325" lon="7.00547">
        <ele>1115</ele>
        <time>2023-07-15T12:19:56+02:00</time>
      </trkpt>
      <trkpt lat="48.05348" lon="7.00548">
        <ele>1113</ele>
        <time>2023-07-15T12:20:35+02:00</time>
      </trkpt>
      <trkpt lat="48.05367" lon="7.00528">
        <ele>1113</ele>
        <time>2023-07-15T12:20:59+02:00</time>
      </trkpt>
      <trkpt lat="48.05389" lon="7.00517">
        <ele>1116</ele>
        <time>2023-07-15T12:21:43+02:00</time>
      </trkpt>
      <trkpt lat="48.05404" lon="7.00492">
        <ele>1113</ele>
        <time>2023-07-15T12:22:10+02:00</time>
      </trkpt>
      <trkpt lat="48.05427" lon="7.00493">
        <ele>1115</ele>
        <time>2023-07-15T12:22:39+02:00</time>
      </trkpt>
      <trkpt lat="48.05405" lon="7.00494">
        <ele>1113</ele>
        <time>2023-07-15T12:23:59+02:00</time>
      </trkpt>
      <trkpt lat="48.05389" lon="7.00519">
        <ele>1110</ele>
        <time>2023-07-15T12:24:52+02:00</time>
      </trkpt>
      <trkpt lat="48.05366" lon="7.00529">
        <ele>1110</ele>
        <time>2023-07-15T12:25:58+02:00</time>
      </trkpt>
      <trkpt lat="48.05344" lon="7.00538">
        <ele>1109</ele>
        <time>2023-07-15T12:26:23+02:00</time>
      </trkpt>
      <trkpt lat="48.05322" lon="7.0053">
        <ele>1109</ele>
        <time>2023-07-15T12:26:45+02:00</time>
      </trkpt>
      <trkpt lat="48.05307" lon="7.00503">
        <ele>1105</ele>
        <time>2023-07-15T12:27:09+02:00</time>
      </trkpt>
      <trkpt lat="48.05288" lon="7.00483">
        <ele>1108</ele>
        <time>2023-07-15T12:27:25+02:00</time>
      </trkpt>
      <trkpt lat="48.0527" lon="7.00462">
        <ele>1100</ele>
        <time>2023-07-15T12:27:47+02:00</time>
      </trkpt>
      <trkpt lat="48.0525" lon="7.00442">
        <ele>1099</ele>
        <time>2023-07-15T12:28:07+02:00</time>
      </trkpt>
      <trkpt lat="48.05232" lon="7.00421">
        <ele>1098</ele>
        <time>2023-07-15T12:28:27+02:00</time>
      </trkpt>
      <trkpt lat="48.0521" lon="7.00407">
        <ele>1095</ele>
        <time>2023-07-15T12:29:02+02:00</time>
      </trkpt>
      <trkpt lat="48.05195" lon="7.00382">
        <ele>1091</ele>
        <time>2023-07-15T12:29:26+02:00</time>
      </trkpt>
      <trkpt lat="48.05173" lon="7.0037">
        <ele>1090</ele>
        <time>2023-07-15T12:29:47+02:00</time>
      </trkpt>
      <trkpt lat="48.05152" lon="7.00357">
        <ele>1088</ele>
        <time>2023-07-15T12:30:10+02:00</time>
      </trkpt>
      <trkpt lat="48.0513" lon="7.00345">
        <ele>1085</ele>
        <time>2023-07-15T12:30:31+02:00</time>
      </trkpt>
      <trkpt lat="48.05109" lon="7.00332">
        <ele>1085</ele>
        <time>2023-07-15T12:30:51+02:00</time>
      </trkpt>
      <trkpt lat="48.05091" lon="7.00312">
        <ele>1080</ele>
        <time>2023-07-15T12:31:17+02:00</time>
      </trkpt>
      <trkpt lat="48.05082" lon="7.00281">
        <ele>1080</ele>
        <time>2023-07-15T12:31:54+02:00</time>
      </trkpt>
      <trkpt lat="48.05066" lon="7.00255">
        <ele>1077</ele>
        <time>2023-07-15T12:32:27+02:00</time>
      </trkpt>
      <trkpt lat="48.05052" lon="7.00226">
        <ele>1072</ele>
        <time>2023-07-15T12:32:51+02:00</time>
      </trkpt>
      <trkpt lat="48.0504" lon="7.00198">
        <ele>1071</ele>
        <time>2023-07-15T12:33:13+02:00</time>
      </trkpt>
      <trkpt lat="48.0503" lon="7.00168">
        <ele>1068</ele>
        <time>2023-07-15T12:33:39+02:00</time>
      </trkpt>
      <trkpt lat="48.05045" lon="7.0014">
        <ele>1064</ele>
        <time>2023-07-15T12:34:03+02:00</time>
      </trkpt>
      <trkpt lat="48.0504" lon="7.00107">
        <ele>1063</ele>
        <time>2023-07-15T12:34:28+02:00</time>
      </trkpt>
      <trkpt lat="48.05041" lon="7.00073">
        <ele>1058</ele>
        <time>2023-07-15T12:34:59+02:00</time>
      </trkpt>
      <trkpt lat="48.05034" lon="7.00041">
        <ele>1056</ele>
        <time>2023-07-15T12:35:21+02:00</time>
      </trkpt>
      <trkpt lat="48.05025" lon="7.00007">
        <ele>1056</ele>
        <time>2023-07-15T12:35:43+02:00</time>
      </trkpt>
      <trkpt lat="48.0503" lon="6.99974">
        <ele>1048</ele>
        <time>2023-07-15T12:36:07+02:00</time>
      </trkpt>
      <trkpt lat="48.05032" lon="6.9994">
        <ele>1044</ele>
        <time>2023-07-15T12:36:31+02:00</time>
      </trkpt>
      <trkpt lat="48.05039" lon="6.99908">
        <ele>1040</ele>
        <time>2023-07-15T12:37:03+02:00</time>
      </trkpt>
      <trkpt lat="48.05055" lon="6.99883">
        <ele>1033</ele>
        <time>2023-07-15T12:37:34+02:00</time>
      </trkpt>
      <trkpt lat="48.0506" lon="6.99849">
        <ele>1033</ele>
        <time>2023-07-15T12:38:03+02:00</time>
      </trkpt>
      <trkpt lat="48.05071" lon="6.99819">
        <ele>1019</ele>
        <time>2023-07-15T12:38:31+02:00</time>
      </trkpt>
      <trkpt lat="48.05076" lon="6.99785">
        <ele>1016</ele>
        <time>2023-07-15T12:39:04+02:00</time>
      </trkpt>
      <trkpt lat="48.05057" lon="6.99768">
        <ele>1013</ele>
        <time>2023-07-15T12:39:39+02:00</time>
      </trkpt>
      <trkpt lat="48.05047" lon="6.99736">
        <ele>1004</ele>
        <time>2023-07-15T12:40:11+02:00</time>
      </trkpt>
      <trkpt lat="48.05056" lon="6.99705">
        <ele>999</ele>
        <time>2023-07-15T12:40:37+02:00</time>
      </trkpt>
      <trkpt lat="48.05055" lon="6.99671">
        <ele>989</ele>
        <time>2023-07-15T12:41:27+02:00</time>
      </trkpt>
      <trkpt lat="48.05055" lon="6.99636">
        <ele>987</ele>
        <time>2023-07-15T12:41:50+02:00</time>
      </trkpt>
      <trkpt lat="48.05068" lon="6.99607">
        <ele>982</ele>
        <time>2023-07-15T12:42:14+02:00</time>
      </trkpt>
      <trkpt lat="48.05073" lon="6.99573">
        <ele>971</ele>
        <time>2023-07-15T12:42:44+02:00</time>
      </trkpt>
      <trkpt lat="48.05087" lon="6.99546">
        <ele>970</ele>
        <time>2023-07-15T12:43:06+02:00</time>
      </trkpt>
      <trkpt lat="48.05104" lon="6.9952">
        <ele>965</ele>
        <time>2023-07-15T12:43:32+02:00</time>
      </trkpt>
      <trkpt lat="48.05127" lon="6.99517">
        <ele>962</ele>
        <time>2023-07-15T12:43:48+02:00</time>
      </trkpt>
      <trkpt lat="48.05133" lon="6.9955">
        <ele>955</ele>
        <time>2023-07-15T12:44:11+02:00</time>
      </trkpt>
      <trkpt lat="48.05156" lon="6.99561">
        <ele>951</ele>
        <time>2023-07-15T12:44:50+02:00</time>
      </trkpt>
      <trkpt lat="48.05178" lon="6.99548">
        <ele>945</ele>
        <time>2023-07-15T12:45:24+02:00</time>
      </trkpt>
      <trkpt lat="48.052" lon="6.99538">
        <ele>941</ele>
        <time>2023-07-15T12:45:49+02:00</time>
      </trkpt>
      <trkpt lat="48.05221" lon="6.99524">
        <ele>928</ele>
        <time>2023-07-15T12:46:20+02:00</time>
      </trkpt>
      <trkpt lat="48.05234" lon="6.99495">
        <ele>929</ele>
        <time>2023-07-15T12:46:42+02:00</time>
      </trkpt>
      <trkpt lat="48.05243" lon="6.99464">
        <ele>922</ele>
        <time>2023-07-15T12:47:09+02:00</time>
      </trkpt>
      <trkpt lat="48.0526" lon="6.99441">
        <ele>918</ele>
        <time>2023-07-15T12:47:31+02:00</time>
      </trkpt>
      <trkpt lat="48.0528" lon="6.99422">
        <ele>910</ele>
        <time>2023-07-15T12:47:55+02:00</time>
      </trkpt>
      <trkpt lat="48.05287" lon="6.99389">
        <ele>907</ele>
        <time>2023-07-15T12:48:20+02:00</time>
      </trkpt>
      <trkpt lat="48.053" lon="6.9936">
        <ele>901</ele>
        <time>2023-07-15T12:48:46+02:00</time>
      </trkpt>
      <trkpt lat="48.05315" lon="6.99334">
        <ele>900</ele>
        <time>2023-07-15T12:49:07+02:00</time>
      </trkpt>
      <trkpt lat="48.05331" lon="6.9931">
        <ele>898</ele>
        <time>2023-07-15T12:49:28+02:00</time>
      </trkpt>
      <trkpt lat="48.05347" lon="6.99285">
        <ele>896</ele>
        <time>2023-07-15T12:49:49+02:00</time>
      </trkpt>
      <trkpt lat="48.05368" lon="6.99271">
        <ele>889</ele>
        <time>2023-07-15T12:50:09+02:00</time>
      </trkpt>
      <trkpt lat="48.05359" lon="6.99239">
        <ele>879</ele>
        <time>2023-07-15T12:51:40+02:00</time>
      </trkpt>
      <trkpt lat="48.05352" lon="6.99207">
        <ele>869</ele>
        <time>2023-07-15T12:52:13+02:00</time>
      </trkpt>
      <trkpt lat="48.05341" lon="6.99177">
        <ele>864</ele>
        <time>2023-07-15T12:52:37+02:00</time>
      </trkpt>
      <trkpt lat="48.05338" lon="6.99142">
        <ele>860</ele>
        <time>2023-07-15T12:53:03+02:00</time>
      </trkpt>
      <trkpt lat="48.05327" lon="6.99112">
        <ele>850</ele>
        <time>2023-07-15T12:54:34+02:00</time>
      </trkpt>
      <trkpt lat="48.05318" lon="6.99081">
        <ele>846</ele>
        <time>2023-07-15T12:55:55+02:00</time>
      </trkpt>
      <trkpt lat="48.05298" lon="6.99098">
        <ele>851</ele>
        <time>2023-07-15T12:57:37+02:00</time>
      </trkpt>
      <trkpt lat="48.0531" lon="6.99068">
        <ele>843</ele>
        <time>2023-07-15T13:03:52+02:00</time>
      </trkpt>
      <trkpt lat="48.05306" lon="6.99033">
        <ele>835</ele>
        <time>2023-07-15T13:04:27+02:00</time>
      </trkpt>
      <trkpt lat="48.05299" lon="6.99001">
        <ele>827</ele>
        <time>2023-07-15T13:05:16+02:00</time>
      </trkpt>
      <trkpt lat="48.05285" lon="6.98973">
        <ele>820</ele>
        <time>2023-07-15T13:05:54+02:00</time>
      </trkpt>
      <trkpt lat="48.05279" lon="6.9894">
        <ele>816</ele>
        <time>2023-07-15T13:06:24+02:00</time>
      </trkpt>
      <trkpt lat="48.05274" lon="6.98905">
        <ele>815</ele>
        <time>2023-07-15T13:06:46+02:00</time>
      </trkpt>
      <trkpt lat="48.05275" lon="6.98871">
        <ele>811</ele>
        <time>2023-07-15T13:07:31+02:00</time>
      </trkpt>
      <trkpt lat="48.05288" lon="6.98841">
        <ele>807</ele>
        <time>2023-07-15T13:07:52+02:00</time>
      </trkpt>
      <trkpt lat="48.05307" lon="6.98821">
        <ele>804</ele>
        <time>2023-07-15T13:08:13+02:00</time>
      </trkpt>
      <trkpt lat="48.05326" lon="6.98801">
        <ele>804</ele>
        <time>2023-07-15T13:08:37+02:00</time>
      </trkpt>
      <trkpt lat="48.05342" lon="6.98775">
        <ele>800</ele>
        <time>2023-07-15T13:09:02+02:00</time>
      </trkpt>
      <trkpt lat="48.05359" lon="6.98752">
        <ele>796</ele>
        <time>2023-07-15T13:09:30+02:00</time>
      </trkpt>
      <trkpt lat="48.0537" lon="6.98722">
        <ele>796</ele>
        <time>2023-07-15T13:09:52+02:00</time>
      </trkpt>
      <trkpt lat="48.05378" lon="6.9869">
        <ele>789</ele>
        <time>2023-07-15T13:10:21+02:00</time>
      </trkpt>
      <trkpt lat="48.05386" lon="6.98658">
        <ele>787</ele>
        <time>2023-07-15T13:10:48+02:00</time>
      </trkpt>
      <trkpt lat="48.05409" lon="6.98656">
        <ele>784</ele>
        <time>2023-07-15T13:11:12+02:00</time>
      </trkpt>
      <trkpt lat="48.05431" lon="6.98666">
        <ele>783</ele>
        <time>2023-07-15T13:11:32+02:00</time>
      </trkpt>
      <trkpt lat="48.05452" lon="6.9868">
        <ele>784</ele>
        <time>2023-07-15T13:11:52+02:00</time>
      </trkpt>
      <trkpt lat="48.05473" lon="6.9869">
        <ele>786</ele>
        <time>2023-07-15T13:12:12+02:00</time>
      </trkpt>
      <trkpt lat="48.05496" lon="6.98694">
        <ele>782</ele>
        <time>2023-07-15T13:12:34+02:00</time>
      </trkpt>
      <trkpt lat="48.05518" lon="6.98687">
        <ele>782</ele>
        <time>2023-07-15T13:12:59+02:00</time>
      </trkpt>
      <trkpt lat="48.05507" lon="6.98657">
        <ele>779</ele>
        <time>2023-07-15T13:14:54+02:00</time>
      </trkpt>
      <trkpt lat="48.05492" lon="6.98631">
        <ele>782</ele>
        <time>2023-07-15T13:15:15+02:00</time>
      </trkpt>
      <trkpt lat="48.05482" lon="6.98601">
        <ele>780</ele>
        <time>2023-07-15T13:15:35+02:00</time>
      </trkpt>
      <trkpt lat="48.05475" lon="6.98568">
        <ele>780</ele>
        <time>2023-07-15T13:15:55+02:00</time>
      </trkpt>
      <trkpt lat="48.05469" lon="6.98536">
        <ele>782</ele>
        <time>2023-07-15T13:16:15+02:00</time>
      </trkpt>
      <trkpt lat="48.05468" lon="6.98501">
        <ele>782</ele>
        <time>2023-07-15T13:16:35+02:00</time>
      </trkpt>
      <trkpt lat="48.0547" lon="6.98467">
        <ele>783</ele>
        <time>2023-07-15T13:16:55+02:00</time>
      </trkpt>
      <trkpt lat="48.05474" lon="6.98432">
        <ele>778</ele>
        <time>2023-07-15T13:17:16+02:00</time>
      </trkpt>
      <trkpt lat="48.0548" lon="6.98398">
        <ele>779</ele>
        <time>2023-07-15T13:17:43+02:00</time>
      </trkpt>
      <trkpt lat="48.05471" lon="6.98367">
        <ele>786</ele>
        <time>2023-07-15T13:18:07+02:00</time>
      </trkpt>
      <trkpt lat="48.05472" lon="6.98332">
        <ele>791</ele>
        <time>2023-07-15T13:18:41+02:00</time>
      </trkpt>
      <trkpt lat="48.05478" lon="6.98298">
        <ele>791</ele>
        <time>2023-07-15T13:19:33+02:00</time>
      </trkpt>
      <trkpt lat="48.05489" lon="6.98268">
        <ele>790</ele>
        <time>2023-07-15T13:19:53+02:00</time>
      </trkpt>
      <trkpt lat="48.05513" lon="6.98259">
        <ele>796</ele>
        <time>2023-07-15T13:20:15+02:00</time>
      </trkpt>
      <trkpt lat="48.05534" lon="6.98249">
        <ele>787</ele>
        <time>2023-07-15T13:20:34+02:00</time>
      </trkpt>
      <trkpt lat="48.05557" lon="6.98246">
        <ele>792</ele>
        <time>2023-07-15T13:20:52+02:00</time>
      </trkpt>
      <trkpt lat="48.05578" lon="6.98232">
        <ele>789</ele>
        <time>2023-07-15T13:21:11+02:00</time>
      </trkpt>
      <trkpt lat="48.05602" lon="6.98224">
        <ele>788</ele>
        <time>2023-07-15T13:21:34+02:00</time>
      </trkpt>
      <trkpt lat="48.05625" lon="6.98221">
        <ele>784</ele>
        <time>2023-07-15T13:21:55+02:00</time>
      </trkpt>
      <trkpt lat="48.05647" lon="6.98214">
        <ele>779</ele>
        <time>2023-07-15T13:22:19+02:00</time>
      </trkpt>
      <trkpt lat="48.0567" lon="6.98214">
        <ele>781</ele>
        <time>2023-07-15T13:23:02+02:00</time>
      </trkpt>
      <trkpt lat="48.05693" lon="6.98214">
        <ele>777</ele>
        <time>2023-07-15T13:23:24+02:00</time>
      </trkpt>
      <trkpt lat="48.05715" lon="6.98216">
        <ele>778</ele>
        <time>2023-07-15T13:23:44+02:00</time>
      </trkpt>
      <trkpt lat="48.0574" lon="6.98214">
        <ele>780</ele>
        <time>2023-07-15T13:24:07+02:00</time>
      </trkpt>
      <trkpt lat="48.05762" lon="6.98205">
        <ele>780</ele>
        <time>2023-07-15T13:24:31+02:00</time>
      </trkpt>
      <trkpt lat="48.05784" lon="6.982">
        <ele>789</ele>
        <time>2023-07-15T13:24:59+02:00</time>
      </trkpt>
      <trkpt lat="48.05806" lon="6.98208">
        <ele>777</ele>
        <time>2023-07-15T13:26:31+02:00</time>
      </trkpt>
      <trkpt lat="48.05793" lon="6.98235">
        <ele>781</ele>
        <time>2023-07-15T13:27:16+02:00</time>
      </trkpt>
      <trkpt lat="48.05803" lon="6.98268">
        <ele>781</ele>
        <time>2023-07-15T13:28:34+02:00</time>
      </trkpt>
      <trkpt lat="48.05788" lon="6.98241">
        <ele>778</ele>
        <time>2023-07-15T13:29:57+02:00</time>
      </trkpt>
      <trkpt lat="48.05782" lon="6.98208">
        <ele>786</ele>
        <time>2023-07-15T13:30:27+02:00</time>
      </trkpt>
      <trkpt lat="48.05797" lon="6.98181">
        <ele>782</ele>
        <time>2023-07-15T13:31:22+02:00</time>
      </trkpt>
      <trkpt lat="48.05811" lon="6.98155">
        <ele>772</ele>
        <time>2023-07-15T13:32:51+02:00</time>
      </trkpt>
      <trkpt lat="48.05835" lon="6.98147">
        <ele>778</ele>
        <time>2023-07-15T13:33:15+02:00</time>
      </trkpt>
      <trkpt lat="48.05819" lon="6.98172">
        <ele>785</ele>
        <time>2023-07-15T13:34:20+02:00</time>
      </trkpt>
      <trkpt lat="48.05803" lon="6.98147">
        <ele>780</ele>
        <time>2023-07-15T13:34:43+02:00</time>
      </trkpt>
      <trkpt lat="48.05802" lon="6.98111">
        <ele>781</ele>
        <time>2023-07-15T13:35:00+02:00</time>
      </trkpt>
      <trkpt lat="48.05796" lon="6.98079">
        <ele>785</ele>
        <time>2023-07-15T13:35:25+02:00</time>
      </trkpt>
      <trkpt lat="48.05797" lon="6.98044">
        <ele>788</ele>
        <time>2023-07-15T13:35:47+02:00</time>
      </trkpt>
      <trkpt lat="48.05778" lon="6.98061">
        <ele>797</ele>
        <time>2023-07-15T13:37:30+02:00</time>
      </trkpt>
      <trkpt lat="48.0576" lon="6.98085">
        <ele>810</ele>
        <time>2023-07-15T13:39:07+02:00</time>
      </trkpt>
      <trkpt lat="48.05737" lon="6.98092">
        <ele>805</ele>
        <time>2023-07-15T13:40:07+02:00</time>
      </trkpt>
      <trkpt lat="48.0572" lon="6.98115">
        <ele>813</ele>
        <time>2023-07-15T13:43:20+02:00</time>
      </trkpt>
      <trkpt lat="48.05701" lon="6.98135">
        <ele>824</ele>
        <time>2023-07-15T13:44:30+02:00</time>
      </trkpt>
      <trkpt lat="48.05678" lon="6.9814">
        <ele>813</ele>
        <time>2023-07-15T13:58:25+02:00</time>
      </trkpt>
      <trkpt lat="48.05655" lon="6.9814">
        <ele>822</ele>
        <time>2023-07-15T13:59:04+02:00</time>
      </trkpt>
      <trkpt lat="48.05633" lon="6.98141">
        <ele>825</ele>
        <time>2023-07-15T13:59:55+02:00</time>
      </trkpt>
      <trkpt lat="48.0561" lon="6.98143">
        <ele>828</ele>
        <time>2023-07-15T14:00:50+02:00</time>
      </trkpt>
      <trkpt lat="48.05586" lon="6.98142">
        <ele>828</ele>
        <time>2023-07-15T14:01:22+02:00</time>
      </trkpt>
      <trkpt lat="48.05563" lon="6.98137">
        <ele>831</ele>
        <time>2023-07-15T14:02:05+02:00</time>
      </trkpt>
      <trkpt lat="48.05541" lon="6.98139">
        <ele>839</ele>
        <time>2023-07-15T14:02:38+02:00</time>
      </trkpt>
      <trkpt lat="48.0552" lon="6.98128">
        <ele>835</ele>
        <time>2023-07-15T14:03:16+02:00</time>
      </trkpt>
      <trkpt lat="48.055" lon="6.98111">
        <ele>833</ele>
        <time>2023-07-15T14:04:53+02:00</time>
      </trkpt>
      <trkpt lat="48.05491" lon="6.98079">
        <ele>841</ele>
        <time>2023-07-15T14:05:39+02:00</time>
      </trkpt>
      <trkpt lat="48.05473" lon="6.98059">
        <ele>848</ele>
        <time>2023-07-15T14:06:53+02:00</time>
      </trkpt>
      <trkpt lat="48.05462" lon="6.98029">
        <ele>843</ele>
        <time>2023-07-15T14:07:38+02:00</time>
      </trkpt>
      <trkpt lat="48.05469" lon="6.97996">
        <ele>851</ele>
        <time>2023-07-15T14:08:17+02:00</time>
      </trkpt>
      <trkpt lat="48.05484" lon="6.97972">
        <ele>869</ele>
        <time>2023-07-15T14:09:10+02:00</time>
      </trkpt>
      <trkpt lat="48.0549" lon="6.97938">
        <ele>873</ele>
        <time>2023-07-15T14:10:20+02:00</time>
      </trkpt>
      <trkpt lat="48.05487" lon="6.97904">
        <ele>881</ele>
        <time>2023-07-15T14:11:10+02:00</time>
      </trkpt>
      <trkpt lat="48.05488" lon="6.97869">
        <ele>887</ele>
        <time>2023-07-15T14:13:01+02:00</time>
      </trkpt>
      <trkpt lat="48.05483" lon="6.97836">
        <ele>896</ele>
        <time>2023-07-15T14:13:57+02:00</time>
      </trkpt>
      <trkpt lat="48.05491" lon="6.97802">
        <ele>908</ele>
        <time>2023-07-15T14:15:24+02:00</time>
      </trkpt>
      <trkpt lat="48.05485" lon="6.97769">
        <ele>913</ele>
        <time>2023-07-15T14:16:40+02:00</time>
      </trkpt>
      <trkpt lat="48.05475" lon="6.97738">
        <ele>924</ele>
        <time>2023-07-15T14:18:27+02:00</time>
      </trkpt>
      <trkpt lat="48.05472" lon="6.97704">
        <ele>929</ele>
        <time>2023-07-15T14:19:25+02:00</time>
      </trkpt>
      <trkpt lat="48.0547" lon="6.9767">
        <ele>943</ele>
        <time>2023-07-15T14:20:52+02:00</time>
      </trkpt>
      <trkpt lat="48.05469" lon="6.97636">
        <ele>955</ele>
        <time>2023-07-15T14:21:53+02:00</time>
      </trkpt>
      <trkpt lat="48.05458" lon="6.97606">
        <ele>962</ele>
        <time>2023-07-15T14:23:23+02:00</time>
      </trkpt>
      <trkpt lat="48.0546" lon="6.97572">
        <ele>978</ele>
        <time>2023-07-15T14:24:21+02:00</time>
      </trkpt>
      <trkpt lat="48.05482" lon="6.97559">
        <ele>986</ele>
        <time>2023-07-15T14:24:49+02:00</time>
      </trkpt>
      <trkpt lat="48.05502" lon="6.97577">
        <ele>979</ele>
        <time>2023-07-15T14:25:12+02:00</time>
      </trkpt>
      <trkpt lat="48.05518" lon="6.976">
        <ele>978</ele>
        <time>2023-07-15T14:25:42+02:00</time>
      </trkpt>
      <trkpt lat="48.05539" lon="6.97615">
        <ele>981</ele>
        <time>2023-07-15T14:27:13+02:00</time>
      </trkpt>
      <trkpt lat="48.05546" lon="6.97647">
        <ele>982</ele>
        <time>2023-07-15T14:27:49+02:00</time>
      </trkpt>
      <trkpt lat="48.05559" lon="6.97676">
        <ele>984</ele>
        <time>2023-07-15T14:28:17+02:00</time>
      </trkpt>
      <trkpt lat="48.05541" lon="6.97654">
        <ele>975</ele>
        <time>2023-07-15T14:29:03+02:00</time>
      </trkpt>
      <trkpt lat="48.05534" lon="6.97621">
        <ele>980</ele>
        <time>2023-07-15T14:29:26+02:00</time>
      </trkpt>
      <trkpt lat="48.05554" lon="6.97603">
        <ele>981</ele>
        <time>2023-07-15T14:30:01+02:00</time>
      </trkpt>
      <trkpt lat="48.05575" lon="6.97588">
        <ele>980</ele>
        <time>2023-07-15T14:30:23+02:00</time>
      </trkpt>
      <trkpt lat="48.05569" lon="6.97555">
        <ele>979</ele>
        <time>2023-07-15T14:30:51+02:00</time>
      </trkpt>
      <trkpt lat="48.05559" lon="6.97525">
        <ele>986</ele>
        <time>2023-07-15T14:31:20+02:00</time>
      </trkpt>
      <trkpt lat="48.05543" lon="6.975">
        <ele>989</ele>
        <time>2023-07-15T14:31:45+02:00</time>
      </trkpt>
      <trkpt lat="48.05538" lon="6.97465">
        <ele>989</ele>
        <time>2023-07-15T14:32:12+02:00</time>
      </trkpt>
      <trkpt lat="48.0553" lon="6.97431">
        <ele>985</ele>
        <time>2023-07-15T14:32:37+02:00</time>
      </trkpt>
      <trkpt lat="48.05533" lon="6.97397">
        <ele>987</ele>
        <time>2023-07-15T14:32:54+02:00</time>
      </trkpt>
      <trkpt lat="48.05536" lon="6.97363">
        <ele>985</ele>
        <time>2023-07-15T14:33:25+02:00</time>
      </trkpt>
      <trkpt lat="48.05546" lon="6.97331">
        <ele>989</ele>
        <time>2023-07-15T14:33:51+02:00</time>
      </trkpt>
      <trkpt lat="48.05555" lon="6.973">
        <ele>986</ele>
        <time>2023-07-15T14:34:19+02:00</time>
      </trkpt>
      <trkpt lat="48.05571" lon="6.97273">
        <ele>981</ele>
        <time>2023-07-15T14:34:53+02:00</time>
      </trkpt>
      <trkpt lat="48.05589" lon="6.97253">
        <ele>977</ele>
        <time>2023-07-15T14:36:01+02:00</time>
      </trkpt>
      <trkpt lat="48.05612" lon="6.97243">
        <ele>973</ele>
        <time>2023-07-15T14:36:26+02:00</time>
      </trkpt>
      <trkpt lat="48.05632" lon="6.97227">
        <ele>965</ele>
        <time>2023-07-15T14:36:55+02:00</time>
      </trkpt>
      <trkpt lat="48.05656" lon="6.97229">
        <ele>962</ele>
        <time>2023-07-15T14:37:27+02:00</time>
      </trkpt>
      <trkpt lat="48.05669" lon="6.97201">
        <ele>964</ele>
        <time>2023-07-15T14:38:05+02:00</time>
      </trkpt>
      <trkpt lat="48.05678" lon="6.97168">
        <ele>966</ele>
        <time>2023-07-15T14:38:36+02:00</time>
      </trkpt>
      <trkpt lat="48.05683" lon="6.97134">
        <ele>971</ele>
        <time>2023-07-15T14:38:59+02:00</time>
      </trkpt>
      <trkpt lat="48.05686" lon="6.971">
        <ele>973</ele>
        <time>2023-07-15T14:39:20+02:00</time>
      </trkpt>
      <trkpt lat="48.05684" lon="6.97064">
        <ele>978</ele>
        <time>2023-07-15T14:39:45+02:00</time>
      </trkpt>
      <trkpt lat="48.0568" lon="6.9703">
        <ele>980</ele>
        <time>2023-07-15T14:40:11+02:00</time>
      </trkpt>
      <trkpt lat="48.05681" lon="6.96996">
        <ele>984</ele>
        <time>2023-07-15T14:40:41+02:00</time>
      </trkpt>
      <trkpt lat="48.05688" lon="6.96964">
        <ele>984</ele>
        <time>2023-07-15T14:41:13+02:00</time>
      </trkpt>
      <trkpt lat="48.05679" lon="6.96933">
        <ele>984</ele>
        <time>2023-07-15T14:42:36+02:00</time>
      </trkpt>
      <trkpt lat="48.05682" lon="6.96899">
        <ele>991</ele>
        <time>2023-07-15T14:43:02+02:00</time>
      </trkpt>
      <trkpt lat="48.05689" lon="6.96866">
        <ele>996</ele>
        <time>2023-07-15T14:43:40+02:00</time>
      </trkpt>
      <trkpt lat="48.05695" lon="6.96834">
        <ele>1005</ele>
        <time>2023-07-15T14:44:24+02:00</time>
      </trkpt>
      <trkpt lat="48.05705" lon="6.96804">
        <ele>1001</ele>
        <time>2023-07-15T14:46:28+02:00</time>
      </trkpt>
      <trkpt lat="48.057" lon="6.9677">
        <ele>1009</ele>
        <time>2023-07-15T14:47:23+02:00</time>
      </trkpt>
      <trkpt lat="48.05697" lon="6.96736">
        <ele>1013</ele>
        <time>2023-07-15T14:47:55+02:00</time>
      </trkpt>
      <trkpt lat="48.05696" lon="6.96701">
        <ele>1014</ele>
        <time>2023-07-15T14:48:30+02:00</time>
      </trkpt>
      <trkpt lat="48.05711" lon="6.96676">
        <ele>1017</ele>
        <time>2023-07-15T14:48:52+02:00</time>
      </trkpt>
      <trkpt lat="48.0572" lon="6.96645">
        <ele>1020</ele>
        <time>2023-07-15T14:49:23+02:00</time>
      </trkpt>
      <trkpt lat="48.05724" lon="6.96611">
        <ele>1018</ele>
        <time>2023-07-15T14:50:05+02:00</time>
      </trkpt>
      <trkpt lat="48.05728" lon="6.96576">
        <ele>1013</ele>
        <time>2023-07-15T14:50:39+02:00</time>
      </trkpt>
      <trkpt lat="48.05733" lon="6.96543">
        <ele>1013</ele>
        <time>2023-07-15T14:51:11+02:00</time>
      </trkpt>
      <trkpt lat="48.05725" lon="6.96511">
        <ele>1018</ele>
        <time>2023-07-15T14:51:34+02:00</time>
      </trkpt>
      <trkpt lat="48.05715" lon="6.96481">
        <ele>1012</ele>
        <time>2023-07-15T14:52:01+02:00</time>
      </trkpt>
      <trkpt lat="48.05699" lon="6.96454">
        <ele>1011</ele>
        <time>2023-07-15T14:52:35+02:00</time>
      </trkpt>
      <trkpt lat="48.05681" lon="6.96434">
        <ele>1020</ele>
        <time>2023-07-15T14:53:11+02:00</time>
      </trkpt>
      <trkpt lat="48.0567" lon="6.96404">
        <ele>1024</ele>
        <time>2023-07-15T14:53:46+02:00</time>
      </trkpt>
      <trkpt lat="48.05667" lon="6.9637">
        <ele>1015</ele>
        <time>2023-07-15T14:54:27+02:00</time>
      </trkpt>
      <trkpt lat="48.05667" lon="6.96334">
        <ele>1003</ele>
        <time>2023-07-15T14:54:57+02:00</time>
      </trkpt>
      <trkpt lat="48.05662" lon="6.96301">
        <ele>997</ele>
        <time>2023-07-15T14:55:49+02:00</time>
      </trkpt>
      <trkpt lat="48.05661" lon="6.96267">
        <ele>1002</ele>
        <time>2023-07-15T14:56:29+02:00</time>
      </trkpt>
      <trkpt lat="48.05683" lon="6.96259">
        <ele>998</ele>
        <time>2023-07-15T14:58:54+02:00</time>
      </trkpt>
      <trkpt lat="48.05703" lon="6.96244">
        <ele>975</ele>
        <time>2023-07-15T14:59:30+02:00</time>
      </trkpt>
      <trkpt lat="48.05725" lon="6.96236">
        <ele>982</ele>
        <time>2023-07-15T14:59:57+02:00</time>
      </trkpt>
      <trkpt lat="48.05747" lon="6.96227">
        <ele>974</ele>
        <time>2023-07-15T15:00:22+02:00</time>
      </trkpt>
      <trkpt lat="48.0577" lon="6.96215">
        <ele>976</ele>
        <time>2023-07-15T15:00:48+02:00</time>
      </trkpt>
      <trkpt lat="48.05792" lon="6.96211">
        <ele>969</ele>
        <time>2023-07-15T15:01:14+02:00</time>
      </trkpt>
      <trkpt lat="48.05816" lon="6.96203">
        <ele>964</ele>
        <time>2023-07-15T15:01:47+02:00</time>
      </trkpt>
      <trkpt lat="48.05838" lon="6.96196">
        <ele>964</ele>
        <time>2023-07-15T15:02:11+02:00</time>
      </trkpt>
      <trkpt lat="48.05855" lon="6.96174">
        <ele>960</ele>
        <time>2023-07-15T15:02:44+02:00</time>
      </trkpt>
      <trkpt lat="48.05876" lon="6.96157">
        <ele>959</ele>
        <time>2023-07-15T15:03:07+02:00</time>
      </trkpt>
      <trkpt lat="48.05882" lon="6.96124">
        <ele>958</ele>
        <time>2023-07-15T15:03:31+02:00</time>
      </trkpt>
      <trkpt lat="48.05878" lon="6.9609">
        <ele>962</ele>
        <time>2023-07-15T15:04:39+02:00</time>
      </trkpt>
      <trkpt lat="48.05858" lon="6.96071">
        <ele>960</ele>
        <time>2023-07-15T15:05:06+02:00</time>
      </trkpt>
      <trkpt lat="48.0585" lon="6.96038">
        <ele>964</ele>
        <time>2023-07-15T15:11:25+02:00</time>
      </trkpt>
      <trkpt lat="48.0585" lon="6.96004">
        <ele>964</ele>
        <time>2023-07-15T15:12:00+02:00</time>
      </trkpt>
      <trkpt lat="48.05867" lon="6.95981">
        <ele>956</ele>
        <time>2023-07-15T15:12:42+02:00</time>
      </trkpt>
      <trkpt lat="48.05879" lon="6.95953">
        <ele>939</ele>
        <time>2023-07-15T15:13:27+02:00</time>
      </trkpt>
      <trkpt lat="48.05877" lon="6.95919">
        <ele>942</ele>
        <time>2023-07-15T15:13:58+02:00</time>
      </trkpt>
      <trkpt lat="48.05877" lon="6.95885">
        <ele>937</ele>
        <time>2023-07-15T15:14:31+02:00</time>
      </trkpt>
      <trkpt lat="48.05893" lon="6.95861">
        <ele>925</ele>
        <time>2023-07-15T15:15:02+02:00</time>
      </trkpt>
      <trkpt lat="48.05909" lon="6.95837">
        <ele>929</ele>
        <time>2023-07-15T15:15:52+02:00</time>
      </trkpt>
      <trkpt lat="48.05927" lon="6.95817">
        <ele>920</ele>
        <time>2023-07-15T15:16:45+02:00</time>
      </trkpt>
      <trkpt lat="48.05942" lon="6.95792">
        <ele>915</ele>
        <time>2023-07-15T15:17:35+02:00</time>
      </trkpt>
      <trkpt lat="48.05951" lon="6.9576">
        <ele>912</ele>
        <time>2023-07-15T15:18:16+02:00</time>
      </trkpt>
      <trkpt lat="48.05965" lon="6.95732">
        <ele>910</ele>
        <time>2023-07-15T15:18:52+02:00</time>
      </trkpt>
      <trkpt lat="48.05976" lon="6.95702">
        <ele>912</ele>
        <time>2023-07-15T15:19:35+02:00</time>
      </trkpt>
      <trkpt lat="48.05988" lon="6.95671">
        <ele>891</ele>
        <time>2023-07-15T15:20:20+02:00</time>
      </trkpt>
      <trkpt lat="48.05993" lon="6.95638">
        <ele>886</ele>
        <time>2023-07-15T15:20:50+02:00</time>
      </trkpt>
      <trkpt lat="48.05999" lon="6.95603">
        <ele>887</ele>
        <time>2023-07-15T15:21:31+02:00</time>
      </trkpt>
      <trkpt lat="48.0601" lon="6.95574">
        <ele>885</ele>
        <time>2023-07-15T15:22:14+02:00</time>
      </trkpt>
      <trkpt lat="48.06019" lon="6.95543">
        <ele>886</ele>
        <time>2023-07-15T15:22:56+02:00</time>
      </trkpt>
      <trkpt lat="48.0604" lon="6.95529">
        <ele>876</ele>
        <time>2023-07-15T15:23:27+02:00</time>
      </trkpt>
      <trkpt lat="48.06053" lon="6.955">
        <ele>866</ele>
        <time>2023-07-15T15:24:09+02:00</time>
      </trkpt>
      <trkpt lat="48.0607" lon="6.95478">
        <ele>863</ele>
        <time>2023-07-15T15:24:44+02:00</time>
      </trkpt>
      <trkpt lat="48.06084" lon="6.9545">
        <ele>854</ele>
        <time>2023-07-15T15:25:18+02:00</time>
      </trkpt>
      <trkpt lat="48.06107" lon="6.95445">
        <ele>863</ele>
        <time>2023-07-15T15:25:38+02:00</time>
      </trkpt>
      <trkpt lat="48.06131" lon="6.95449">
        <ele>851</ele>
        <time>2023-07-15T15:26:04+02:00</time>
      </trkpt>
      <trkpt lat="48.06154" lon="6.95445">
        <ele>848</ele>
        <time>2023-07-15T15:26:38+02:00</time>
      </trkpt>
      <trkpt lat="48.06178" lon="6.9544">
        <ele>843</ele>
        <time>2023-07-15T15:27:06+02:00</time>
      </trkpt>
      <trkpt lat="48.06189" lon="6.95408">
        <ele>830</ele>
        <time>2023-07-15T15:27:34+02:00</time>
      </trkpt>
      <trkpt lat="48.06207" lon="6.95385">
        <ele>832</ele>
        <time>2023-07-15T15:27:59+02:00</time>
      </trkpt>
      <trkpt lat="48.06219" lon="6.95356">
        <ele>833</ele>
        <time>2023-07-15T15:28:24+02:00</time>
      </trkpt>
      <trkpt lat="48.06239" lon="6.9534">
        <ele>834</ele>
        <time>2023-07-15T15:29:45+02:00</time>
      </trkpt>
      <trkpt lat="48.06251" lon="6.95312">
        <ele>829</ele>
        <time>2023-07-15T15:30:04+02:00</time>
      </trkpt>
      <trkpt lat="48.06261" lon="6.95281">
        <ele>835</ele>
        <time>2023-07-15T15:30:36+02:00</time>
      </trkpt>
      <trkpt lat="48.06275" lon="6.95252">
        <ele>832</ele>
        <time>2023-07-15T15:31:11+02:00</time>
      </trkpt>
      <trkpt lat="48.06296" lon="6.95236">
        <ele>830</ele>
        <time>2023-07-15T15:31:30+02:00</time>
      </trkpt>
      <trkpt lat="48.06312" lon="6.95211">
        <ele>825</ele>
        <time>2023-07-15T15:31:57+02:00</time>
      </trkpt>
      <trkpt lat="48.06312" lon="6.95176">
        <ele>831</ele>
        <time>2023-07-15T15:33:05+02:00</time>
      </trkpt>
      <trkpt lat="48.06326" lon="6.9515">
        <ele>830</ele>
        <time>2023-07-15T15:33:33+02:00</time>
      </trkpt>
      <trkpt lat="48.0634" lon="6.95122">
        <ele>826</ele>
        <time>2023-07-15T15:34:03+02:00</time>
      </trkpt>
      <trkpt lat="48.06354" lon="6.95095">
        <ele>823</ele>
        <time>2023-07-15T15:34:32+02:00</time>
      </trkpt>
      <trkpt lat="48.0637" lon="6.95071">
        <ele>821</ele>
        <time>2023-07-15T15:35:02+02:00</time>
      </trkpt>
      <trkpt lat="48.06387" lon="6.95049">
        <ele>818</ele>
        <time>2023-07-15T15:35:42+02:00</time>
      </trkpt>
      <trkpt lat="48.06409" lon="6.95038">
        <ele>812</ele>
        <time>2023-07-15T15:36:16+02:00</time>
      </trkpt>
      <trkpt lat="48.06432" lon="6.95035">
        <ele>801</ele>
        <time>2023-07-15T15:36:47+02:00</time>
      </trkpt>
      <trkpt lat="48.06444" lon="6.95006">
        <ele>797</ele>
        <time>2023-07-15T15:37:25+02:00</time>
      </trkpt>
      <trkpt lat="48.06457" lon="6.94977">
        <ele>794</ele>
        <time>2023-07-15T15:38:03+02:00</time>
      </trkpt>
      <trkpt lat="48.06466" lon="6.94946">
        <ele>799</ele>
        <time>2023-07-15T15:38:30+02:00</time>
      </trkpt>
      <trkpt lat="48.0649" lon="6.94938">
        <ele>790</ele>
        <time>2023-07-15T15:38:58+02:00</time>
      </trkpt>
      <trkpt lat="48.06512" lon="6.94928">
        <ele>789</ele>
        <time>2023-07-15T15:39:23+02:00</time>
      </trkpt>
      <trkpt lat="48.06534" lon="6.94917">
        <ele>781</ele>
        <time>2023-07-15T15:39:56+02:00</time>
      </trkpt>
      <trkpt lat="48.06557" lon="6.94918">
        <ele>777</ele>
        <time>2023-07-15T15:40:23+02:00</time>
      </trkpt>
      <trkpt lat="48.0658" lon="6.94918">
        <ele>773</ele>
        <time>2023-07-15T15:40:52+02:00</time>
      </trkpt>
      <trkpt lat="48.06602" lon="6.9491">
        <ele>768</ele>
        <time>2023-07-15T15:41:32+02:00</time>
      </trkpt>
      <trkpt lat="48.06624" lon="6.94899">
        <ele>769</ele>
        <time>2023-07-15T15:42:36+02:00</time>
      </trkpt>
      <trkpt lat="48.06647" lon="6.94899">
        <ele>760</ele>
        <time>2023-07-15T15:43:05+02:00</time>
      </trkpt>
      <trkpt lat="48.06669" lon="6.94888">
        <ele>753</ele>
        <time>2023-07-15T15:43:34+02:00</time>
      </trkpt>
      <trkpt lat="48.06691" lon="6.94876">
        <ele>751</ele>
        <time>2023-07-15T15:44:24+02:00</time>
      </trkpt>
      <trkpt lat="48.06708" lon="6.94853">
        <ele>749</ele>
        <time>2023-07-15T15:44:52+02:00</time>
      </trkpt>
      <trkpt lat="48.06727" lon="6.94834">
        <ele>750</ele>
        <time>2023-07-15T15:45:16+02:00</time>
      </trkpt>
      <trkpt lat="48.06743" lon="6.9481">
        <ele>749</ele>
        <time>2023-07-15T15:45:40+02:00</time>
      </trkpt>
      <trkpt lat="48.06765" lon="6.94781">
        <ele>751</ele>
        <time>2023-07-15T16:30:28+02:00</time>
      </trkpt>
      <trkpt lat="48.06757" lon="6.94796">
        <ele>746</ele>
        <time>2023-07-15T16:30:42+02:00</time>
      </trkpt>
      <trkpt lat="48.06756" lon="6.94797">
        <ele>743</ele>
        <time>2023-07-15T16:31:00+02:00</time>
      </trkpt>
      <trkpt lat="48.06744" lon="6.94826">
        <ele>750</ele>
        <time>2023-07-15T16:33:28+02:00</time>
      </trkpt>
      <trkpt lat="48.06726" lon="6.94848">
        <ele>750</ele>
        <time>2023-07-15T16:33:51+02:00</time>
      </trkpt>
      <trkpt lat="48.06709" lon="6.94869">
        <ele>749</ele>
        <time>2023-07-15T16:34:12+02:00</time>
      </trkpt>
      <trkpt lat="48.06691" lon="6.94893">
        <ele>749</ele>
        <time>2023-07-15T16:34:34+02:00</time>
      </trkpt>
      <trkpt lat="48.06676" lon="6.94919">
        <ele>750</ele>
        <time>2023-07-15T16:34:55+02:00</time>
      </trkpt>
      <trkpt lat="48.0666" lon="6.94943">
        <ele>749</ele>
        <time>2023-07-15T16:35:17+02:00</time>
      </trkpt>
      <trkpt lat="48.06643" lon="6.94966">
        <ele>749</ele>
        <time>2023-07-15T16:35:39+02:00</time>
      </trkpt>
      <trkpt lat="48.06625" lon="6.94989">
        <ele>747</ele>
        <time>2023-07-15T16:36:02+02:00</time>
      </trkpt>
      <trkpt lat="48.06605" lon="6.95005">
        <ele>745</ele>
        <time>2023-07-15T16:36:24+02:00</time>
      </trkpt>
      <trkpt lat="48.06586" lon="6.95026">
        <ele>745</ele>
        <time>2023-07-15T16:36:46+02:00</time>
      </trkpt>
      <trkpt lat="48.06568" lon="6.95047">
        <ele>742</ele>
        <time>2023-07-15T16:37:08+02:00</time>
      </trkpt>
      <trkpt lat="48.06549" lon="6.95067">
        <ele>740</ele>
        <time>2023-07-15T16:37:29+02:00</time>
      </trkpt>
      <trkpt lat="48.06537" lon="6.95097">
        <ele>742</ele>
        <time>2023-07-15T16:37:51+02:00</time>
      </trkpt>
      <trkpt lat="48.06523" lon="6.95123">
        <ele>741</ele>
        <time>2023-07-15T16:38:13+02:00</time>
      </trkpt>
      <trkpt lat="48.06505" lon="6.95145">
        <ele>746</ele>
        <time>2023-07-15T16:38:34+02:00</time>
      </trkpt>
      <trkpt lat="48.06494" lon="6.95176">
        <ele>742</ele>
        <time>2023-07-15T16:38:56+02:00</time>
      </trkpt>
      <trkpt lat="48.06478" lon="6.95201">
        <ele>742</ele>
        <time>2023-07-15T16:39:19+02:00</time>
      </trkpt>
      <trkpt lat="48.06466" lon="6.9523">
        <ele>739</ele>
        <time>2023-07-15T16:39:41+02:00</time>
      </trkpt>
      <trkpt lat="48.06448" lon="6.9525">
        <ele>740</ele>
        <time>2023-07-15T16:40:03+02:00</time>
      </trkpt>
      <trkpt lat="48.06433" lon="6.95276">
        <ele>740</ele>
        <time>2023-07-15T16:40:25+02:00</time>
      </trkpt>
      <trkpt lat="48.06421" lon="6.95304">
        <ele>741</ele>
        <time>2023-07-15T16:40:46+02:00</time>
      </trkpt>
      <trkpt lat="48.06405" lon="6.9533">
        <ele>741</ele>
        <time>2023-07-15T16:41:08+02:00</time>
      </trkpt>
      <trkpt lat="48.06389" lon="6.95354">
        <ele>738</ele>
        <time>2023-07-15T16:41:30+02:00</time>
      </trkpt>
      <trkpt lat="48.06371" lon="6.95376">
        <ele>739</ele>
        <time>2023-07-15T16:41:51+02:00</time>
      </trkpt>
      <trkpt lat="48.06357" lon="6.95403">
        <ele>741</ele>
        <time>2023-07-15T16:42:12+02:00</time>
      </trkpt>
      <trkpt lat="48.06344" lon="6.95431">
        <ele>740</ele>
        <time>2023-07-15T16:42:33+02:00</time>
      </trkpt>
      <trkpt lat="48.06335" lon="6.95462">
        <ele>738</ele>
        <time>2023-07-15T16:42:54+02:00</time>
      </trkpt>
      <trkpt lat="48.06324" lon="6.95491">
        <ele>744</ele>
        <time>2023-07-15T16:43:18+02:00</time>
      </trkpt>
      <trkpt lat="48.06319" lon="6.95525">
        <ele>743</ele>
        <time>2023-07-15T16:43:39+02:00</time>
      </trkpt>
      <trkpt lat="48.0632" lon="6.9556">
        <ele>740</ele>
        <time>2023-07-15T16:43:59+02:00</time>
      </trkpt>
      <trkpt lat="48.06322" lon="6.95596">
        <ele>739</ele>
        <time>2023-07-15T16:44:20+02:00</time>
      </trkpt>
      <trkpt lat="48.06329" lon="6.95628">
        <ele>738</ele>
        <time>2023-07-15T16:44:41+02:00</time>
      </trkpt>
      <trkpt lat="48.06335" lon="6.95661">
        <ele>738</ele>
        <time>2023-07-15T16:45:04+02:00</time>
      </trkpt>
      <trkpt lat="48.06342" lon="6.95694">
        <ele>735</ele>
        <time>2023-07-15T16:45:26+02:00</time>
      </trkpt>
      <trkpt lat="48.06347" lon="6.95726">
        <ele>738</ele>
        <time>2023-07-15T16:45:46+02:00</time>
      </trkpt>
      <trkpt lat="48.06352" lon="6.95759">
        <ele>738</ele>
        <time>2023-07-15T16:46:07+02:00</time>
      </trkpt>
      <trkpt lat="48.06357" lon="6.95792">
        <ele>737</ele>
        <time>2023-07-15T16:46:28+02:00</time>
      </trkpt>
      <trkpt lat="48.06362" lon="6.95826">
        <ele>738</ele>
        <time>2023-07-15T16:46:50+02:00</time>
      </trkpt>
      <trkpt lat="48.06366" lon="6.9586">
        <ele>738</ele>
        <time>2023-07-15T16:47:12+02:00</time>
      </trkpt>
      <trkpt lat="48.06365" lon="6.95895">
        <ele>741</ele>
        <time>2023-07-15T16:47:35+02:00</time>
      </trkpt>
      <trkpt lat="48.06362" lon="6.9593">
        <ele>741</ele>
        <time>2023-07-15T16:47:58+02:00</time>
      </trkpt>
      <trkpt lat="48.06342" lon="6.95945">
        <ele>739</ele>
        <time>2023-07-15T16:48:28+02:00</time>
      </trkpt>
      <trkpt lat="48.06319" lon="6.95941">
        <ele>741</ele>
        <time>2023-07-15T16:49:08+02:00</time>
      </trkpt>
    </trkseg>
  </trk>
</gpx>